Observation data for Slaton on 12/02/2020      Previous  Date       Current Mesonet Observations  Soil Data  Daily Summary Page  Observations in Plain Language
KSLS 020600Z 34017G26KT 05/M06 A2997 RMK A01 T00491055  RH  047%=      5-min Rain = 0
KSLS 020601Z 34017G25KT 05/M06 A2997 RMK A01 T00491055  RH  047%=      5-min Rain = 0
KSLS 020602Z 35019G25KT 05/M06 A2997 RMK A01 T00491055  RH  047%=      5-min Rain = 0
KSLS 020603Z 35018G25KT 05/M06 A2997 RMK A01 T00491055  RH  047%=      5-min Rain = 0
KSLS 020604Z 34017G27KT 05/M06 A2997 RMK A01 T00491055  RH  047%=      5-min Rain = 0
KSLS 020605Z 34015G22KT 05/M06 A2997 RMK A01 T00491055  RH  047%=      5-min Rain = 0
KSLS 020606Z 34018G24KT 05/M06 A2997 RMK A01 T00491055  RH  047%=      5-min Rain = 0
KSLS 020607Z 34015G20KT 05/M06 A2997 RMK A01 T00481055  RH  047%=      5-min Rain = 0
KSLS 020608Z 34019G27KT 05/M06 A2997 RMK A01 T00481055  RH  047%=      5-min Rain = 0
KSLS 020609Z 34016G22KT 05/M05 A2997 RMK A01 T00481054  RH  047%=      5-min Rain = 0
KSLS 020610Z 35016KT 05/M05 A2997 RMK A01 T00481054  RH  047%=      5-min Rain = 0
KSLS 020611Z 34018G26KT 05/M05 A2997 RMK A01 T00481054  RH  048%=      5-min Rain = 0
KSLS 020612Z 34017G23KT 05/M05 A2997 RMK A01 T00481054  RH  048%=      5-min Rain = 0
KSLS 020613Z 34016G23KT 05/M05 A2998 RMK A01 T00481054  RH  048%=      5-min Rain = 0
KSLS 020614Z 34018G26KT 05/M05 A2998 RMK A01 T00471054  RH  048%=      5-min Rain = 0
KSLS 020615Z 34020G27KT 05/M05 A2998 RMK A01 T00481054  RH  048%=      5-min Rain = 0
KSLS 020616Z 34018G23KT 05/M05 A2998 RMK A01 T00481054  RH  048%=      5-min Rain = 0
KSLS 020617Z 34020G27KT 05/M05 A2998 RMK A01 T00481054  RH  048%=      5-min Rain = 0
KSLS 020618Z 34018G25KT 05/M05 A2998 RMK A01 T00481053  RH  048%=      5-min Rain = 0
KSLS 020619Z 34020G28KT 05/M05 A2998 RMK A01 T00481053  RH  048%=      5-min Rain = 0
KSLS 020620Z 34018G26KT 05/M05 A2998 RMK A01 T00471053  RH  048%=      5-min Rain = 0
KSLS 020621Z 34019G27KT 05/M05 A2998 RMK A01 T00471053  RH  048%=      5-min Rain = 0
KSLS 020622Z 34015G24KT 05/M05 A2998 RMK A01 T00481052  RH  048%=      5-min Rain = 0
KSLS 020623Z 34018G23KT 05/M05 A2998 RMK A01 T00471052  RH  049%=      5-min Rain = 0
KSLS 020624Z 34019G26KT 05/M05 A2998 RMK A01 T00471052  RH  049%=      5-min Rain = 0
KSLS 020625Z 34018G26KT 05/M05 A2998 RMK A01 T00471051  RH  049%=      5-min Rain = 0
KSLS 020626Z 34017G24KT 05/M05 A2998 RMK A01 T00471051  RH  049%=      5-min Rain = 0
KSLS 020627Z 34023G30KT 05/M05 A2998 RMK A01 T00471051  RH  049%=      5-min Rain = 0
KSLS 020628Z 35017G24KT 05/M05 A2998 RMK A01 T00481050  RH  049%=      5-min Rain = 0
KSLS 020629Z 34017G25KT 05/M05 A2998 RMK A01 T00481051  RH  049%=      5-min Rain = 0
KSLS 020630Z 34017G22KT 05/M05 A2998 RMK A01 T00471051  RH  049%=      5-min Rain = 0
KSLS 020631Z 34018G24KT 05/M05 A2999 RMK A01 T00461051  RH  049%=      5-min Rain = 0
KSLS 020632Z 34017G22KT 05/M05 A2999 RMK A01 T00461051  RH  049%=      5-min Rain = 0
KSLS 020633Z 34015G23KT 05/M05 A2999 RMK A01 T00461050  RH  049%=      5-min Rain = 0
KSLS 020634Z 34015G20KT 05/M05 A2999 RMK A01 T00451051  RH  050%=      5-min Rain = 0
KSLS 020635Z 34016G21KT 05/M05 A2999 RMK A01 T00451051  RH  050%=      5-min Rain = 0
KSLS 020636Z 33017G24KT 05/M05 A2999 RMK A01 T00451051  RH  050%=      5-min Rain = 0
KSLS 020637Z 34015G20KT 05/M05 A2999 RMK A01 T00451050  RH  050%=      5-min Rain = 0
KSLS 020638Z 33016G23KT 05/M05 A2999 RMK A01 T00451051  RH  050%=      5-min Rain = 0
KSLS 020639Z 34017G24KT 04/M05 A2999 RMK A01 T00441051  RH  050%=      5-min Rain = 0
KSLS 020640Z 34017KT 04/M05 A2999 RMK A01 T00441050  RH  050%=      5-min Rain = 0
KSLS 020641Z 34015KT 04/M05 A2999 RMK A01 T00441050  RH  050%=      5-min Rain = 0
KSLS 020642Z 34014G20KT 04/M05 A2999 RMK A01 T00431050  RH  051%=      5-min Rain = 0
KSLS 020643Z 34016G21KT 04/M05 A2999 RMK A01 T00431050  RH  051%=      5-min Rain = 0
KSLS 020644Z 33014G21KT 04/M05 A2999 RMK A01 T00431049  RH  051%=      5-min Rain = 0
KSLS 020645Z 33016G22KT 04/M05 A2999 RMK A01 T00421049  RH  051%=      5-min Rain = 0
KSLS 020646Z 34016G22KT 04/M05 A2999 RMK A01 T00421049  RH  052%=      5-min Rain = 0
KSLS 020647Z 33019G24KT 04/M05 A30 RMK A01 T00421049  RH  052%=      5-min Rain = 0
KSLS 020648Z 33016G21KT 04/M05 A30 RMK A01 T00421049  RH  052%=      5-min Rain = 0
KSLS 020649Z 33015KT 04/M05 A30 RMK A01 T00421048  RH  052%=      5-min Rain = 0
KSLS 020650Z 33017G22KT 04/M05 A30 RMK A01 T00411048  RH  052%=      5-min Rain = 0
KSLS 020651Z 33016G23KT 04/M05 A30 RMK A01 T00411048  RH  052%=      5-min Rain = 0
KSLS 020652Z 33015G20KT 04/M05 A30 RMK A01 T00411048  RH  052%=      5-min Rain = 0
KSLS 020653Z 33016G22KT 04/M05 A30 RMK A01 T00401048  RH  053%=      5-min Rain = 0
KSLS 020654Z 33017G23KT 04/M05 A30 RMK A01 T00401048  RH  053%=      5-min Rain = 0
KSLS 020655Z 33017KT 04/M05 A30 RMK A01 T00401048  RH  053%=      5-min Rain = 0
KSLS 020656Z 33016G21KT 04/M05 A30 RMK A01 T00401048  RH  053%=      5-min Rain = 0
KSLS 020657Z 33016G22KT 04/M05 A30 RMK A01 T00401048  RH  053%=      5-min Rain = 0
KSLS 020658Z 34015G20KT 04/M05 A30 RMK A01 T00401048  RH  053%=      5-min Rain = 0
KSLS 020659Z 33015G21KT 04/M05 A30 RMK A01 T00391048  RH  053%=      5-min Rain = 0
KSLS 020700Z 34015G23KT 04/M05 A30 RMK A01 T00391048  RH  053%=      5-min Rain = 0
KSLS 020701Z 34014KT 04/M05 A30 RMK A01 T00391049  RH  053%=      5-min Rain = 0
KSLS 020702Z 33014KT 04/M05 A30 RMK A01 T00381049  RH  053%=      5-min Rain = 0
KSLS 020703Z 34016G21KT 04/M05 A30 RMK A01 T00381049  RH  053%=      5-min Rain = 0
KSLS 020704Z 33015G22KT 04/M05 A30 RMK A01 T00381050  RH  053%=      5-min Rain = 0
KSLS 020705Z 33016KT 04/M05 A30 RMK A01 T00381050  RH  052%=      5-min Rain = 0
KSLS 020706Z 33012G17KT 04/M05 A30 RMK A01 T00381051  RH  052%=      5-min Rain = 0
KSLS 020707Z 33013G19KT 04/M05 A30 RMK A01 T00381051  RH  052%=      5-min Rain = 0
KSLS 020708Z 33013G19KT 04/M05 A30 RMK A01 T00371052  RH  052%=      5-min Rain = 0
KSLS 020709Z 33014G19KT 04/M05 A30 RMK A01 T00371052  RH  052%=      5-min Rain = 0
KSLS 020710Z 33015KT 04/M05 A30 RMK A01 T00371052  RH  052%=      5-min Rain = 0
KSLS 020711Z 33015G21KT 04/M05 A30 RMK A01 T00371053  RH  052%=      5-min Rain = 0
KSLS 020712Z 33013KT 04/M05 A3001 RMK A01 T00371054  RH  052%=      5-min Rain = 0
KSLS 020713Z 33015G21KT 04/M05 A3001 RMK A01 T00371054  RH  051%=      5-min Rain = 0
KSLS 020714Z 34016G21KT 04/M06 A3001 RMK A01 T00371055  RH  051%=      5-min Rain = 0
KSLS 020715Z 33011KT 04/M06 A3001 RMK A01 T00371055  RH  051%=      5-min Rain = 0
KSLS 020716Z 33013KT 04/M06 A3001 RMK A01 T00371056  RH  051%=      5-min Rain = 0
KSLS 020717Z 33016G22KT 04/M06 A3001 RMK A01 T00371056  RH  051%=      5-min Rain = 0
KSLS 020718Z 33013KT 04/M06 A3001 RMK A01 T00371057  RH  050%=      5-min Rain = 0
KSLS 020719Z 34015G20KT 04/M06 A3001 RMK A01 T00371057  RH  050%=      5-min Rain = 0
KSLS 020720Z 33013KT 04/M06 A3001 RMK A01 T00371058  RH  050%=      5-min Rain = 0
KSLS 020721Z 33013KT 04/M06 A3001 RMK A01 T00371058  RH  050%=      5-min Rain = 0
KSLS 020722Z 34015KT 04/M06 A3001 RMK A01 T00371059  RH  050%=      5-min Rain = 0
KSLS 020723Z 34015G20KT 04/M06 A3001 RMK A01 T00371059  RH  049%=      5-min Rain = 0
KSLS 020724Z 33017G22KT 04/M06 A3001 RMK A01 T00371059  RH  049%=      5-min Rain = 0
KSLS 020725Z 34014G19KT 04/M06 A3001 RMK A01 T00371060  RH  049%=      5-min Rain = 0
KSLS 020726Z 34017KT 04/M06 A3001 RMK A01 T00371060  RH  049%=      5-min Rain = 0
KSLS 020727Z 34015KT 04/M06 A3001 RMK A01 T00381060  RH  049%=      5-min Rain = 0
KSLS 020728Z 33015G20KT 04/M06 A3001 RMK A01 T00381060  RH  049%=      5-min Rain = 0
KSLS 020729Z 33015KT 04/M06 A3001 RMK A01 T00381060  RH  049%=      5-min Rain = 0
KSLS 020730Z 33015G20KT 04/M06 A3001 RMK A01 T00381061  RH  049%=      5-min Rain = 0
KSLS 020731Z 33012KT 04/M06 A3001 RMK A01 T00371061  RH  049%=      5-min Rain = 0
KSLS 020732Z 33014G19KT 04/M06 A3001 RMK A01 T00371061  RH  049%=      5-min Rain = 0
KSLS 020733Z 33015G20KT 04/M06 A3001 RMK A01 T00371061  RH  049%=      5-min Rain = 0
KSLS 020734Z 34011KT 04/M06 A3001 RMK A01 T00371062  RH  049%=      5-min Rain = 0
KSLS 020735Z 34012KT 04/M06 A3001 RMK A01 T00361062  RH  049%=      5-min Rain = 0
KSLS 020736Z 34013KT 04/M06 A3001 RMK A01 T00361062  RH  049%=      5-min Rain = 0
KSLS 020737Z 33012KT 04/M06 A3001 RMK A01 T00361062  RH  049%=      5-min Rain = 0
KSLS 020738Z 33014KT 04/M06 A3001 RMK A01 T00361062  RH  049%=      5-min Rain = 0
KSLS 020739Z 34014KT 04/M06 A3001 RMK A01 T00361062  RH  049%=      5-min Rain = 0
KSLS 020740Z 33014G20KT 04/M06 A3001 RMK A01 T00351063  RH  049%=      5-min Rain = 0
KSLS 020741Z 33013G18KT 04/M06 A3001 RMK A01 T00351063  RH  049%=      5-min Rain = 0
KSLS 020742Z 33015KT 04/M06 A3001 RMK A01 T00351064  RH  048%=      5-min Rain = 0
KSLS 020743Z 33013KT 04/M06 A3001 RMK A01 T00351064  RH  048%=      5-min Rain = 0
KSLS 020744Z 33016KT 03/M06 A3001 RMK A01 T00341064  RH  048%=      5-min Rain = 0
KSLS 020745Z 33016G21KT 03/M06 A3001 RMK A01 T00341064  RH  048%=      5-min Rain = 0
KSLS 020746Z 33014G19KT 03/M07 A3001 RMK A01 T00341065  RH  048%=      5-min Rain = 0
KSLS 020747Z 33014KT 03/M07 A3001 RMK A01 T00341065  RH  048%=      5-min Rain = 0
KSLS 020748Z 33015KT 03/M07 A3001 RMK A01 T00331066  RH  048%=      5-min Rain = 0
KSLS 020749Z 33015G22KT 03/M07 A3001 RMK A01 T00331066  RH  048%=      5-min Rain = 0
KSLS 020750Z 33018G24KT 03/M07 A3001 RMK A01 T00331066  RH  048%=      5-min Rain = 0
KSLS 020751Z 33017G22KT 03/M07 A3001 RMK A01 T00331067  RH  048%=      5-min Rain = 0
KSLS 020752Z 33016G24KT 03/M07 A3001 RMK A01 T00331067  RH  048%=      5-min Rain = 0
KSLS 020753Z 33017G25KT 03/M07 A3001 RMK A01 T00331067  RH  048%=      5-min Rain = 0
KSLS 020754Z 33018G23KT 03/M07 A3001 RMK A01 T00331067  RH  048%=      5-min Rain = 0
KSLS 020755Z 33016G22KT 03/M07 A3001 RMK A01 T00331068  RH  048%=      5-min Rain = 0
KSLS 020756Z 33014KT 03/M07 A3001 RMK A01 T00331068  RH  048%=      5-min Rain = 0
KSLS 020757Z 33018G23KT 03/M07 A3001 RMK A01 T00321068  RH  048%=      5-min Rain = 0
KSLS 020758Z 33014G19KT 03/M07 A3001 RMK A01 T00321068  RH  048%=      5-min Rain = 0
KSLS 020759Z 33018KT 03/M07 A3001 RMK A01 T00321068  RH  048%=      5-min Rain = 0
KSLS 020800Z 34019G24KT 03/M07 A3001 RMK A01 T00321069  RH  047%=      5-min Rain = 0
KSLS 020801Z 33018G23KT 03/M07 A3001 RMK A01 T00331069  RH  047%=      5-min Rain = 0
KSLS 020802Z 34014KT 03/M07 A3001 RMK A01 T00331069  RH  047%=      5-min Rain = 0
KSLS 020803Z 33017G24KT 03/M07 A3001 RMK A01 T00321070  RH  047%=      5-min Rain = 0
KSLS 020804Z 33016KT 03/M07 A3001 RMK A01 T00321070  RH  047%=      5-min Rain = 0
KSLS 020805Z 34014G21KT 03/M07 A3001 RMK A01 T00321070  RH  047%=      5-min Rain = 0
KSLS 020806Z 34016G21KT 03/M07 A3001 RMK A01 T00311070  RH  047%=      5-min Rain = 0
KSLS 020807Z 33015G21KT 03/M07 A3001 RMK A01 T00311070  RH  047%=      5-min Rain = 0
KSLS 020808Z 33014KT 03/M07 A3001 RMK A01 T00311070  RH  047%=      5-min Rain = 0
KSLS 020809Z 33016KT 03/M07 A3001 RMK A01 T00311070  RH  047%=      5-min Rain = 0
KSLS 020810Z 33015G21KT 03/M07 A3001 RMK A01 T00311071  RH  047%=      5-min Rain = 0
KSLS 020811Z 34014G22KT 03/M07 A3001 RMK A01 T00311071  RH  047%=      5-min Rain = 0
KSLS 020812Z 33013KT 03/M07 A3001 RMK A01 T00311071  RH  047%=      5-min Rain = 0
KSLS 020813Z 33014G21KT 03/M07 A3001 RMK A01 T00311071  RH  047%=      5-min Rain = 0
KSLS 020814Z 34014G21KT 03/M07 A3001 RMK A01 T00301071  RH  047%=      5-min Rain = 0
KSLS 020815Z 33015G20KT 03/M07 A3001 RMK A01 T00301071  RH  048%=      5-min Rain = 0
KSLS 020816Z 33015G22KT 03/M07 A3001 RMK A01 T00301071  RH  047%=      5-min Rain = 0
KSLS 020817Z 33017G23KT 03/M07 A3001 RMK A01 T00311071  RH  047%=      5-min Rain = 0
KSLS 020818Z 34015G20KT 03/M07 A3002 RMK A01 T00311071  RH  047%=      5-min Rain = 0
KSLS 020819Z 33014G20KT 03/M07 A3002 RMK A01 T00311071  RH  047%=      5-min Rain = 0
KSLS 020820Z 33014G21KT 03/M07 A3002 RMK A01 T00301071  RH  047%=      5-min Rain = 0
KSLS 020821Z 33016G22KT 03/M07 A3002 RMK A01 T00301071  RH  048%=      5-min Rain = 0
KSLS 020822Z 34017G22KT 03/M07 A3002 RMK A01 T00301070  RH  048%=      5-min Rain = 0
KSLS 020823Z 33018G23KT 03/M07 A3002 RMK A01 T00301071  RH  047%=      5-min Rain = 0
KSLS 020824Z 33017KT 03/M07 A3002 RMK A01 T00311071  RH  047%=      5-min Rain = 0
KSLS 020825Z 34015G21KT 03/M07 A3002 RMK A01 T00311071  RH  047%=      5-min Rain = 0
KSLS 020826Z 33019G25KT 03/M07 A3002 RMK A01 T00311071  RH  047%=      5-min Rain = 0
KSLS 020827Z 33018G23KT 03/M07 A3002 RMK A01 T00311071  RH  047%=      5-min Rain = 0
KSLS 020828Z 33020KT 03/M07 A3001 RMK A01 T00321071  RH  047%=      5-min Rain = 0
KSLS 020829Z 33022G30KT 03/M07 A3001 RMK A01 T00321071  RH  047%=      5-min Rain = 0
KSLS 020830Z 33019G26KT 03/M07 A3002 RMK A01 T00321071  RH  047%=      5-min Rain = 0
KSLS 020831Z 33017G24KT 03/M07 A3002 RMK A01 T00321071  RH  047%=      5-min Rain = 0
KSLS 020832Z 33018G25KT 03/M07 A3002 RMK A01 T00311071  RH  047%=      5-min Rain = 0
KSLS 020833Z 33018G25KT 03/M07 A3002 RMK A01 T00311071  RH  047%=      5-min Rain = 0
KSLS 020834Z 33018KT 03/M07 A3002 RMK A01 T00311071  RH  047%=      5-min Rain = 0
KSLS 020835Z 33018G25KT 03/M07 A3002 RMK A01 T00301071  RH  047%=      5-min Rain = 0
KSLS 020836Z 33015KT 03/M07 A3002 RMK A01 T00301071  RH  048%=      5-min Rain = 0
KSLS 020837Z 33017G24KT 03/M07 A3002 RMK A01 T00291071  RH  048%=      5-min Rain = 0
KSLS 020838Z 33018G26KT 03/M07 A3002 RMK A01 T00291071  RH  048%=      5-min Rain = 0
KSLS 020839Z 33017G26KT 03/M07 A3002 RMK A01 T00291071  RH  048%=      5-min Rain = 0
KSLS 020840Z 33017G23KT 03/M07 A3002 RMK A01 T00291071  RH  048%=      5-min Rain = 0
KSLS 020841Z 33017G23KT 03/M07 A3002 RMK A01 T00291071  RH  048%=      5-min Rain = 0
KSLS 020842Z 33018G25KT 03/M07 A3002 RMK A01 T00291071  RH  048%=      5-min Rain = 0
KSLS 020843Z 33019G26KT 03/M07 A3002 RMK A01 T00291071  RH  048%=      5-min Rain = 0
KSLS 020844Z 33015KT 03/M07 A3002 RMK A01 T00291071  RH  048%=      5-min Rain = 0
KSLS 020845Z 33018G24KT 03/M07 A3002 RMK A01 T00281071  RH  048%=      5-min Rain = 0
KSLS 020846Z 33018G24KT 03/M07 A3002 RMK A01 T00281071  RH  048%=      5-min Rain = 0
KSLS 020847Z 33019G25KT 03/M07 A3002 RMK A01 T00281071  RH  048%=      5-min Rain = 0
KSLS 020848Z 33017KT 03/M07 A3002 RMK A01 T00281071  RH  048%=      5-min Rain = 0
KSLS 020849Z 33017G24KT 03/M07 A3002 RMK A01 T00281072  RH  048%=      5-min Rain = 0
KSLS 020850Z 33016G22KT 03/M07 A3002 RMK A01 T00281071  RH  048%=      5-min Rain = 0
KSLS 020851Z 33016G24KT 03/M07 A3002 RMK A01 T00281071  RH  048%=      5-min Rain = 0
KSLS 020852Z 33018G26KT 03/M07 A3002 RMK A01 T00281071  RH  048%=      5-min Rain = 0
KSLS 020853Z 33018G23KT 03/M07 A3002 RMK A01 T00271072  RH  048%=      5-min Rain = 0
KSLS 020854Z 33018G24KT 03/M07 A3002 RMK A01 T00271072  RH  048%=      5-min Rain = 0
KSLS 020855Z 33017G22KT 03/M07 A3002 RMK A01 T00281072  RH  048%=      5-min Rain = 0
KSLS 020856Z 33018G24KT 03/M07 A3002 RMK A01 T00281072  RH  048%=      5-min Rain = 0
KSLS 020857Z 33019G27KT 03/M07 A3002 RMK A01 T00281072  RH  048%=      5-min Rain = 0
KSLS 020858Z 33020G26KT 03/M07 A3002 RMK A01 T00281072  RH  048%=      5-min Rain = 0
KSLS 020859Z 33017KT 03/M07 A3002 RMK A01 T00281072  RH  048%=      5-min Rain = 0
KSLS 020900Z 34019G25KT 03/M07 A3002 RMK A01 T00281072  RH  048%=      5-min Rain = 0
KSLS 020901Z 34018G24KT 03/M07 A3003 RMK A01 T00281072  RH  048%=      5-min Rain = 0
KSLS 020902Z 33019G29KT 03/M07 A3003 RMK A01 T00281072  RH  048%=      5-min Rain = 0
KSLS 020903Z 33018G26KT 03/M07 A3003 RMK A01 T00281072  RH  048%=      5-min Rain = 0
KSLS 020904Z 33018G24KT 03/M07 A3003 RMK A01 T00281072  RH  048%=      5-min Rain = 0
KSLS 020905Z 33016G24KT 03/M07 A3003 RMK A01 T00281072  RH  048%=      5-min Rain = 0
KSLS 020906Z 33017G22KT 03/M07 A3003 RMK A01 T00281072  RH  048%=      5-min Rain = 0
KSLS 020907Z 33016G23KT 03/M07 A3003 RMK A01 T00271072  RH  048%=      5-min Rain = 0
KSLS 020908Z 33018G26KT 03/M07 A3003 RMK A01 T00271072  RH  048%=      5-min Rain = 0
KSLS 020909Z 33019G24KT 03/M07 A3003 RMK A01 T00281072  RH  048%=      5-min Rain = 0
KSLS 020910Z 33016G21KT 03/M07 A3003 RMK A01 T00281072  RH  048%=      5-min Rain = 0
KSLS 020911Z 33017G24KT 03/M07 A3003 RMK A01 T00281072  RH  048%=      5-min Rain = 0
KSLS 020912Z 33019G27KT 03/M07 A3003 RMK A01 T00271072  RH  048%=      5-min Rain = 0
KSLS 020913Z 33020G26KT 03/M07 A3003 RMK A01 T00271072  RH  048%=      5-min Rain = 0
KSLS 020914Z 33015G22KT 03/M07 A3003 RMK A01 T00281072  RH  048%=      5-min Rain = 0
KSLS 020915Z 34018G25KT 03/M07 A3003 RMK A01 T00281072  RH  048%=      5-min Rain = 0
KSLS 020916Z 34023G30KT 03/M07 A3003 RMK A01 T00281072  RH  048%=      5-min Rain = 0
KSLS 020917Z 34019G24KT 03/M07 A3003 RMK A01 T00291072  RH  047%=      5-min Rain = 0
KSLS 020918Z 33016G22KT 03/M07 A3003 RMK A01 T00291072  RH  047%=      5-min Rain = 0
KSLS 020919Z 33018G26KT 03/M07 A3003 RMK A01 T00281072  RH  048%=      5-min Rain = 0
KSLS 020920Z 33019G27KT 03/M07 A3003 RMK A01 T00281072  RH  048%=      5-min Rain = 0
KSLS 020921Z 33018G24KT 03/M07 A3003 RMK A01 T00281072  RH  048%=      5-min Rain = 0
KSLS 020922Z 33018G24KT 03/M07 A3003 RMK A01 T00281072  RH  048%=      5-min Rain = 0
KSLS 020923Z 34018G24KT 03/M07 A3003 RMK A01 T00271072  RH  048%=      5-min Rain = 0
KSLS 020924Z 33019G26KT 03/M07 A3003 RMK A01 T00271072  RH  048%=      5-min Rain = 0
KSLS 020925Z 34018G25KT 03/M07 A3003 RMK A01 T00271072  RH  048%=      5-min Rain = 0
KSLS 020926Z 33018G23KT 03/M07 A3003 RMK A01 T00281072  RH  048%=      5-min Rain = 0
KSLS 020927Z 33018G26KT 03/M07 A3004 RMK A01 T00281072  RH  048%=      5-min Rain = 0
KSLS 020928Z 34017G25KT 03/M07 A3004 RMK A01 T00271072  RH  048%=      5-min Rain = 0
KSLS 020929Z 33015G21KT 03/M07 A3004 RMK A01 T00271072  RH  048%=      5-min Rain = 0
KSLS 020930Z 33017G25KT 03/M07 A3004 RMK A01 T00271072  RH  048%=      5-min Rain = 0
KSLS 020931Z 33019G27KT 03/M07 A3004 RMK A01 T00261072  RH  048%=      5-min Rain = 0
KSLS 020932Z 33019G25KT 03/M07 A3004 RMK A01 T00261072  RH  048%=      5-min Rain = 0
KSLS 020933Z 33015KT 03/M07 A3004 RMK A01 T00261072  RH  048%=      5-min Rain = 0
KSLS 020934Z 33016G23KT 03/M07 A3004 RMK A01 T00261072  RH  048%=      5-min Rain = 0
KSLS 020935Z 34018G24KT 03/M07 A3004 RMK A01 T00261072  RH  048%=      5-min Rain = 0
KSLS 020936Z 33018KT 03/M07 A3004 RMK A01 T00261072  RH  048%=      5-min Rain = 0
KSLS 020937Z 33018KT 03/M07 A3004 RMK A01 T00261072  RH  048%=      5-min Rain = 0
KSLS 020938Z 34019G25KT 03/M07 A3004 RMK A01 T00261072  RH  048%=      5-min Rain = 0
KSLS 020939Z 33018KT 03/M07 A3004 RMK A01 T00271072  RH  048%=      5-min Rain = 0
KSLS 020940Z 34018G25KT 03/M07 A3004 RMK A01 T00271072  RH  048%=      5-min Rain = 0
KSLS 020941Z 34018G26KT 03/M07 A3004 RMK A01 T00271072  RH  048%=      5-min Rain = 0
KSLS 020942Z 33021G27KT 03/M07 A3004 RMK A01 T00271072  RH  048%=      5-min Rain = 0
KSLS 020943Z 34017G26KT 03/M07 A3005 RMK A01 T00271072  RH  048%=      5-min Rain = 0
KSLS 020944Z 34017G25KT 03/M07 A3005 RMK A01 T00271072  RH  048%=      5-min Rain = 0
KSLS 020945Z 34019G24KT 03/M07 A3005 RMK A01 T00271072  RH  048%=      5-min Rain = 0
KSLS 020946Z 34015G22KT 03/M07 A3005 RMK A01 T00271072  RH  048%=      5-min Rain = 0
KSLS 020947Z 34014G22KT 03/M07 A3005 RMK A01 T00261072  RH  048%=      5-min Rain = 0
KSLS 020948Z 34019G28KT 03/M07 A3005 RMK A01 T00251072  RH  049%=      5-min Rain = 0
KSLS 020949Z 34021G27KT 03/M07 A3005 RMK A01 T00261072  RH  049%=      5-min Rain = 0
KSLS 020950Z 33016G21KT 03/M07 A3005 RMK A01 T00261072  RH  048%=      5-min Rain = 0
KSLS 020951Z 34016G25KT 03/M07 A3005 RMK A01 T00261072  RH  048%=      5-min Rain = 0
KSLS 020952Z 34017G24KT 03/M07 A3005 RMK A01 T00261072  RH  049%=      5-min Rain = 0
KSLS 020953Z 33017G23KT 03/M07 A3005 RMK A01 T00261072  RH  049%=      5-min Rain = 0
KSLS 020954Z 34015G21KT 03/M07 A3005 RMK A01 T00251072  RH  049%=      5-min Rain = 0
KSLS 020955Z 34016G23KT 02/M07 A3005 RMK A01 T00241072  RH  049%=      5-min Rain = 0
KSLS 020956Z 34018G24KT 02/M07 A3005 RMK A01 T00241072  RH  049%=      5-min Rain = 0
KSLS 020957Z 33016G23KT 02/M07 A3005 RMK A01 T00241072  RH  049%=      5-min Rain = 0
KSLS 020958Z 34017G23KT 02/M07 A3005 RMK A01 T00241072  RH  049%=      5-min Rain = 0
KSLS 020959Z 33017KT 02/M07 A3005 RMK A01 T00241072  RH  049%=      5-min Rain = 0
KSLS 021000Z 33016G21KT 02/M07 A3005 RMK A01 T00241072  RH  049%=      5-min Rain = 0
KSLS 021001Z 33019G26KT 02/M07 A3005 RMK A01 T00241072  RH  049%=      5-min Rain = 0
KSLS 021002Z 33016G22KT 02/M07 A3005 RMK A01 T00241072  RH  049%=      5-min Rain = 0
KSLS 021003Z 33017G23KT 02/M07 A3005 RMK A01 T00241072  RH  049%=      5-min Rain = 0
KSLS 021004Z 33015G20KT 02/M07 A3005 RMK A01 T00241072  RH  049%=      5-min Rain = 0
KSLS 021005Z 34016G22KT 02/M07 A3005 RMK A01 T00231072  RH  049%=      5-min Rain = 0
KSLS 021006Z 33016G24KT 02/M07 A3005 RMK A01 T00231072  RH  049%=      5-min Rain = 0
KSLS 021007Z 33015G20KT 02/M07 A3005 RMK A01 T00231072  RH  050%=      5-min Rain = 0
KSLS 021008Z 34017G22KT 02/M07 A3005 RMK A01 T00231072  RH  050%=      5-min Rain = 0
KSLS 021009Z 34015KT 02/M07 A3005 RMK A01 T00231072  RH  050%=      5-min Rain = 0
KSLS 021010Z 33019G26KT 02/M07 A3005 RMK A01 T00221072  RH  050%=      5-min Rain = 0
KSLS 021011Z 33018G25KT 02/M07 A3005 RMK A01 T00231072  RH  050%=      5-min Rain = 0
KSLS 021012Z 33016G22KT 02/M07 A3005 RMK A01 T00231072  RH  050%=      5-min Rain = 0
KSLS 021013Z 33016G21KT 02/M07 A3005 RMK A01 T00231072  RH  050%=      5-min Rain = 0
KSLS 021014Z 33018G24KT 02/M07 A3005 RMK A01 T00221072  RH  050%=      5-min Rain = 0
KSLS 021015Z 33019G25KT 02/M07 A3005 RMK A01 T00221072  RH  050%=      5-min Rain = 0
KSLS 021016Z 33018G24KT 02/M07 A3005 RMK A01 T00221072  RH  050%=      5-min Rain = 0
KSLS 021017Z 34018G24KT 02/M07 A3005 RMK A01 T00221072  RH  050%=      5-min Rain = 0
KSLS 021018Z 33018G23KT 02/M07 A3006 RMK A01 T00221072  RH  050%=      5-min Rain = 0
KSLS 021019Z 33021G26KT 02/M07 A3006 RMK A01 T00221072  RH  050%=      5-min Rain = 0
KSLS 021020Z 34016G22KT 02/M07 A3006 RMK A01 T00221072  RH  050%=      5-min Rain = 0
KSLS 021021Z 34014KT 02/M07 A3006 RMK A01 T00221072  RH  050%=      5-min Rain = 0
KSLS 021022Z 34016G23KT 02/M07 A3006 RMK A01 T00211072  RH  050%=      5-min Rain = 0
KSLS 021023Z 34015G23KT 02/M07 A3006 RMK A01 T00211072  RH  050%=      5-min Rain = 0
KSLS 021024Z 34016G23KT 02/M07 A3006 RMK A01 T00211071  RH  051%=      5-min Rain = 0
KSLS 021025Z 34015KT 02/M07 A3006 RMK A01 T00211071  RH  051%=      5-min Rain = 0
KSLS 021026Z 33015G23KT 02/M07 A3006 RMK A01 T00201071  RH  051%=      5-min Rain = 0
KSLS 021027Z 33017G22KT 02/M07 A3006 RMK A01 T00201071  RH  051%=      5-min Rain = 0
KSLS 021028Z 33017G22KT 02/M07 A3006 RMK A01 T00201071  RH  051%=      5-min Rain = 0
KSLS 021029Z 34016G22KT 02/M07 A3006 RMK A01 T00201071  RH  051%=      5-min Rain = 0
KSLS 021030Z 33016G24KT 02/M07 A3006 RMK A01 T00201071  RH  051%=      5-min Rain = 0
KSLS 021031Z 34014KT 02/M07 A3006 RMK A01 T00201071  RH  051%=      5-min Rain = 0
KSLS 021032Z 34014G19KT 02/M07 A3006 RMK A01 T00201071  RH  051%=      5-min Rain = 0
KSLS 021033Z 33015G21KT 02/M07 A3006 RMK A01 T00191071  RH  051%=      5-min Rain = 0
KSLS 021034Z 33016KT 02/M07 A3006 RMK A01 T00191070  RH  051%=      5-min Rain = 0
KSLS 021035Z 33012G18KT 02/M07 A3007 RMK A01 T00191070  RH  052%=      5-min Rain = 0
KSLS 021036Z 33013G19KT 02/M07 A3007 RMK A01 T00191070  RH  052%=      5-min Rain = 0
KSLS 021037Z 33015G22KT 02/M07 A3007 RMK A01 T00181070  RH  052%=      5-min Rain = 0
KSLS 021038Z 33012KT 02/M07 A3007 RMK A01 T00181070  RH  052%=      5-min Rain = 0
KSLS 021039Z 33012G18KT 02/M07 A3007 RMK A01 T00191070  RH  052%=      5-min Rain = 0
KSLS 021040Z 33015KT 02/M07 A3007 RMK A01 T00181070  RH  052%=      5-min Rain = 0
KSLS 021041Z 33014G19KT 02/M07 A3007 RMK A01 T00181070  RH  052%=      5-min Rain = 0
KSLS 021042Z 33013KT 02/M07 A3007 RMK A01 T00181070  RH  052%=      5-min Rain = 0
KSLS 021043Z 33012KT 02/M07 A3007 RMK A01 T00181070  RH  052%=      5-min Rain = 0
KSLS 021044Z 33015G20KT 02/M07 A3007 RMK A01 T00171069  RH  053%=      5-min Rain = 0
KSLS 021045Z 33014KT 02/M07 A3007 RMK A01 T00171069  RH  053%=      5-min Rain = 0
KSLS 021046Z 33012KT 02/M07 A3007 RMK A01 T00181069  RH  053%=      5-min Rain = 0
KSLS 021047Z 33015G21KT 02/M07 A3007 RMK A01 T00181069  RH  053%=      5-min Rain = 0
KSLS 021048Z 33013KT 02/M07 A3007 RMK A01 T00171069  RH  053%=      5-min Rain = 0
KSLS 021049Z 33013G19KT 02/M07 A3007 RMK A01 T00171069  RH  053%=      5-min Rain = 0
KSLS 021050Z 33014G20KT 02/M07 A3007 RMK A01 T00171069  RH  053%=      5-min Rain = 0
KSLS 021051Z 33012G17KT 02/M07 A3007 RMK A01 T00171069  RH  053%=      5-min Rain = 0
KSLS 021052Z 33014KT 02/M07 A3008 RMK A01 T00171069  RH  053%=      5-min Rain = 0
KSLS 021053Z 33014KT 02/M07 A3008 RMK A01 T00171069  RH  053%=      5-min Rain = 0
KSLS 021054Z 33012G17KT 02/M07 A3008 RMK A01 T00171068  RH  053%=      5-min Rain = 0
KSLS 021055Z 33013KT 02/M07 A3008 RMK A01 T00171068  RH  053%=      5-min Rain = 0
KSLS 021056Z 33013KT 02/M07 A3008 RMK A01 T00161069  RH  053%=      5-min Rain = 0
KSLS 021057Z 33013KT 02/M07 A3008 RMK A01 T00161068  RH  054%=      5-min Rain = 0
KSLS 021058Z 33012KT 02/M07 A3008 RMK A01 T00161068  RH  054%=      5-min Rain = 0
KSLS 021059Z 33012KT 02/M07 A3008 RMK A01 T00161068  RH  054%=      5-min Rain = 0
KSLS 021100Z 33012KT 02/M07 A3008 RMK A01 T00161068  RH  054%=      5-min Rain = 0
KSLS 021101Z 33012G17KT 02/M07 A3008 RMK A01 T00151068  RH  054%=      5-min Rain = 0
KSLS 021102Z 33012G17KT 02/M07 A3008 RMK A01 T00151068  RH  054%=      5-min Rain = 0
KSLS 021103Z 33012KT 02/M07 A3008 RMK A01 T00151068  RH  054%=      5-min Rain = 0
KSLS 021104Z 33011G16KT 02/M07 A3008 RMK A01 T00151068  RH  054%=      5-min Rain = 0
KSLS 021105Z 33015KT 02/M07 A3008 RMK A01 T00151068  RH  054%=      5-min Rain = 0
KSLS 021106Z 33013G18KT 02/M07 A3008 RMK A01 T00151067  RH  054%=      5-min Rain = 0
KSLS 021107Z 33012G18KT 02/M07 A3008 RMK A01 T00151067  RH  054%=      5-min Rain = 0
KSLS 021108Z 33013KT 02/M07 A3008 RMK A01 T00151067  RH  054%=      5-min Rain = 0
KSLS 021109Z 33012G17KT 02/M07 A3008 RMK A01 T00151067  RH  054%=      5-min Rain = 0
KSLS 021110Z 33011KT 02/M07 A3008 RMK A01 T00151067  RH  054%=      5-min Rain = 0
KSLS 021111Z 33012KT 02/M07 A3008 RMK A01 T00151067  RH  055%=      5-min Rain = 0
KSLS 021112Z 32012G19KT 01/M07 A3008 RMK A01 T00141067  RH  055%=      5-min Rain = 0
KSLS 021113Z 33012KT 01/M07 A3008 RMK A01 T00141067  RH  055%=      5-min Rain = 0
KSLS 021114Z 33012KT 01/M07 A3008 RMK A01 T00141067  RH  055%=      5-min Rain = 0
KSLS 021115Z 33012KT 01/M07 A3008 RMK A01 T00131067  RH  055%=      5-min Rain = 0
KSLS 021116Z 33014KT 01/M07 A3008 RMK A01 T00131067  RH  055%=      5-min Rain = 0
KSLS 021117Z 33013G19KT 01/M07 A3008 RMK A01 T00131067  RH  055%=      5-min Rain = 0
KSLS 021118Z 33012G17KT 01/M07 A3008 RMK A01 T00131067  RH  055%=      5-min Rain = 0
KSLS 021119Z 33015KT 01/M07 A3008 RMK A01 T00131067  RH  056%=      5-min Rain = 0
KSLS 021120Z 33013KT 01/M07 A3008 RMK A01 T00131066  RH  055%=      5-min Rain = 0
KSLS 021121Z 33013KT 01/M07 A3008 RMK A01 T00131066  RH  055%=      5-min Rain = 0
KSLS 021122Z 33013KT 01/M07 A3008 RMK A01 T00131066  RH  055%=      5-min Rain = 0
KSLS 021123Z 33014G19KT 01/M07 A3009 RMK A01 T00131067  RH  055%=      5-min Rain = 0
KSLS 021124Z 33012G17KT 01/M07 A3009 RMK A01 T00131066  RH  055%=      5-min Rain = 0
KSLS 021125Z 33012KT 01/M07 A3009 RMK A01 T00131067  RH  055%=      5-min Rain = 0
KSLS 021126Z 33012KT 01/M07 A3009 RMK A01 T00121067  RH  056%=      5-min Rain = 0
KSLS 021127Z 33013KT 01/M07 A3009 RMK A01 T00121067  RH  056%=      5-min Rain = 0
KSLS 021128Z 33014KT 01/M07 A3009 RMK A01 T00121067  RH  056%=      5-min Rain = 0
KSLS 021129Z 33013KT 01/M07 A3009 RMK A01 T00131066  RH  056%=      5-min Rain = 0
KSLS 021130Z 33013KT 01/M07 A3009 RMK A01 T00131066  RH  055%=      5-min Rain = 0
KSLS 021131Z 33014G20KT 01/M07 A3009 RMK A01 T00131066  RH  055%=      5-min Rain = 0
KSLS 021132Z 33014G19KT 01/M07 A3009 RMK A01 T00131066  RH  055%=      5-min Rain = 0
KSLS 021133Z 33015G20KT 01/M07 A3009 RMK A01 T00131066  RH  055%=      5-min Rain = 0
KSLS 021134Z 33013G19KT 01/M07 A3009 RMK A01 T00141066  RH  055%=      5-min Rain = 0
KSLS 021135Z 33016G22KT 01/M07 A3009 RMK A01 T00141066  RH  055%=      5-min Rain = 0
KSLS 021136Z 33014KT 01/M07 A3009 RMK A01 T00141066  RH  055%=      5-min Rain = 0
KSLS 021137Z 33014G21KT 01/M07 A3009 RMK A01 T00141067  RH  055%=      5-min Rain = 0
KSLS 021138Z 34015KT 01/M07 A3009 RMK A01 T00141067  RH  055%=      5-min Rain = 0
KSLS 021139Z 33013KT 01/M07 A3009 RMK A01 T00141067  RH  055%=      5-min Rain = 0
KSLS 021140Z 33013KT 01/M07 A3009 RMK A01 T00131067  RH  055%=      5-min Rain = 0
KSLS 021141Z 33013KT 01/M07 A3009 RMK A01 T00131067  RH  055%=      5-min Rain = 0
KSLS 021142Z 34014KT 01/M07 A3009 RMK A01 T00121067  RH  056%=      5-min Rain = 0
KSLS 021143Z 33014G22KT 01/M07 A3009 RMK A01 T00121067  RH  056%=      5-min Rain = 0
KSLS 021144Z 33016G21KT 01/M07 A3009 RMK A01 T00121067  RH  056%=      5-min Rain = 0
KSLS 021145Z 34015KT 01/M07 A3009 RMK A01 T00141066  RH  055%=      5-min Rain = 0
KSLS 021146Z 34015KT 01/M07 A3009 RMK A01 T00141066  RH  055%=      5-min Rain = 0
KSLS 021147Z 34015KT 01/M07 A3009 RMK A01 T00141067  RH  055%=      5-min Rain = 0
KSLS 021148Z 34015G20KT 01/M07 A3009 RMK A01 T00141067  RH  055%=      5-min Rain = 0
KSLS 021149Z 34015KT 01/M07 A3009 RMK A01 T00141067  RH  055%=      5-min Rain = 0
KSLS 021150Z 34017KT 01/M07 A3009 RMK A01 T00141067  RH  055%=      5-min Rain = 0
KSLS 021151Z 34016G23KT 02/M07 A3009 RMK A01 T00151067  RH  055%=      5-min Rain = 0
KSLS 021152Z 34015G21KT 02/M07 A3009 RMK A01 T00151067  RH  055%=      5-min Rain = 0
KSLS 021153Z 34017G24KT 02/M07 A3009 RMK A01 T00151066  RH  055%=      5-min Rain = 0
KSLS 021154Z 34014G19KT 02/M07 A301 RMK A01 T00161066  RH  055%=      5-min Rain = 0
KSLS 021155Z 34016KT 02/M07 A301 RMK A01 T00161066  RH  055%=      5-min Rain = 0
KSLS 021156Z 34015KT 02/M07 A301 RMK A01 T00161066  RH  055%=      5-min Rain = 0
KSLS 021157Z 34017G24KT 02/M07 A301 RMK A01 T00161066  RH  055%=      5-min Rain = 0
KSLS 021158Z 34017G26KT 02/M07 A301 RMK A01 T00161066  RH  055%=      5-min Rain = 0
KSLS 021159Z 34018G24KT 02/M07 A301 RMK A01 T00171065  RH  054%=      5-min Rain = 0
KSLS 021200Z 35016G21KT 02/M07 A301 RMK A01 T00171065  RH  054%=      5-min Rain = 0
KSLS 021201Z 35017G24KT 02/M07 A301 RMK A01 T00171065  RH  054%=      5-min Rain = 0
KSLS 021202Z 34015G22KT 02/M07 A301 RMK A01 T00181065  RH  054%=      5-min Rain = 0
KSLS 021203Z 34012KT 02/M07 A301 RMK A01 T00181065  RH  054%=      5-min Rain = 0
KSLS 021204Z 34013G18KT 02/M07 A301 RMK A01 T00171066  RH  054%=      5-min Rain = 0
KSLS 021205Z 34012G17KT 02/M07 A301 RMK A01 T00161065  RH  055%=      5-min Rain = 0
KSLS 021206Z 35013G20KT 02/M07 A301 RMK A01 T00151065  RH  055%=      5-min Rain = 0
KSLS 021207Z 35012G17KT 02/M07 A301 RMK A01 T00151065  RH  055%=      5-min Rain = 0
KSLS 021208Z 34013KT 02/M07 A301 RMK A01 T00161065  RH  055%=      5-min Rain = 0
KSLS 021209Z 34012G18KT 02/M07 A301 RMK A01 T00151065  RH  055%=      5-min Rain = 0
KSLS 021210Z 34014G22KT 02/M07 A301 RMK A01 T00151065  RH  055%=      5-min Rain = 0
KSLS 021211Z 34014KT 02/M07 A3011 RMK A01 T00151065  RH  055%=      5-min Rain = 0
KSLS 021212Z 34016G22KT 02/M07 A3011 RMK A01 T00151065  RH  055%=      5-min Rain = 0
KSLS 021213Z 34016G21KT 02/M06 A3011 RMK A01 T00161064  RH  055%=      5-min Rain = 0
KSLS 021214Z 34013G20KT 02/M06 A3011 RMK A01 T00171064  RH  055%=      5-min Rain = 0
KSLS 021215Z 34014KT 02/M06 A3011 RMK A01 T00171064  RH  055%=      5-min Rain = 0
KSLS 021216Z 35016G24KT 02/M06 A3011 RMK A01 T00171064  RH  055%=      5-min Rain = 0
KSLS 021217Z 34018G23KT 02/M06 A3011 RMK A01 T00171064  RH  055%=      5-min Rain = 0
KSLS 021218Z 34018G24KT 02/M06 A3011 RMK A01 T00181063  RH  055%=      5-min Rain = 0
KSLS 021219Z 34016G21KT 02/M06 A3011 RMK A01 T00181064  RH  055%=      5-min Rain = 0
KSLS 021220Z 34016G21KT 02/M06 A3011 RMK A01 T00181064  RH  054%=      5-min Rain = 0
KSLS 021221Z 34016G21KT 02/M06 A3011 RMK A01 T00181064  RH  054%=      5-min Rain = 0
KSLS 021222Z 34012G17KT 02/M06 A3012 RMK A01 T00181064  RH  055%=      5-min Rain = 0
KSLS 021223Z 34013KT 02/M06 A3012 RMK A01 T00171064  RH  055%=      5-min Rain = 0
KSLS 021224Z 34012G17KT 02/M06 A3012 RMK A01 T00171064  RH  055%=      5-min Rain = 0
KSLS 021225Z 34013KT 02/M06 A3012 RMK A01 T00161064  RH  055%=      5-min Rain = 0
KSLS 021226Z 34013KT 02/M06 A3012 RMK A01 T00151064  RH  056%=      5-min Rain = 0
KSLS 021227Z 34013KT 02/M06 A3012 RMK A01 T00151063  RH  056%=      5-min Rain = 0
KSLS 021228Z 33012KT 02/M06 A3012 RMK A01 T00151063  RH  056%=      5-min Rain = 0
KSLS 021229Z 34014KT 02/M06 A3012 RMK A01 T00151063  RH  056%=      5-min Rain = 0
KSLS 021230Z 34013KT 02/M06 A3012 RMK A01 T00151063  RH  056%=      5-min Rain = 0
KSLS 021231Z 34014G19KT 02/M06 A3012 RMK A01 T00161063  RH  056%=      5-min Rain = 0
KSLS 021232Z 33014KT 02/M06 A3012 RMK A01 T00161063  RH  056%=      5-min Rain = 0
KSLS 021233Z 34014G21KT 02/M06 A3012 RMK A01 T00151063  RH  056%=      5-min Rain = 0
KSLS 021234Z 34015KT 02/M06 A3012 RMK A01 T00161063  RH  056%=      5-min Rain = 0
KSLS 021235Z 34014KT 02/M06 A3012 RMK A01 T00161063  RH  056%=      5-min Rain = 0
KSLS 021236Z 34013KT 02/M06 A3012 RMK A01 T00161063  RH  056%=      5-min Rain = 0
KSLS 021237Z 34014KT 02/M06 A3012 RMK A01 T00161063  RH  056%=      5-min Rain = 0
KSLS 021238Z 34012KT 02/M06 A3012 RMK A01 T00151063  RH  056%=      5-min Rain = 0
KSLS 021239Z 34011KT 02/M06 A3013 RMK A01 T00151063  RH  056%=      5-min Rain = 0
KSLS 021240Z 34012KT 02/M06 A3013 RMK A01 T00151063  RH  056%=      5-min Rain = 0
KSLS 021241Z 34014KT 01/M06 A3013 RMK A01 T00141063  RH  056%=      5-min Rain = 0
KSLS 021242Z 34013KT 01/M06 A3013 RMK A01 T00141063  RH  056%=      5-min Rain = 0
KSLS 021243Z 34013KT 01/M06 A3013 RMK A01 T00141063  RH  056%=      5-min Rain = 0
KSLS 021244Z 34013G21KT 02/M06 A3013 RMK A01 T00151063  RH  056%=      5-min Rain = 0
KSLS 021245Z 34014G20KT 02/M06 A3013 RMK A01 T00151063  RH  056%=      5-min Rain = 0
KSLS 021246Z 34012KT 02/M06 A3013 RMK A01 T00151063  RH  056%=      5-min Rain = 0
KSLS 021247Z 34014G19KT 02/M06 A3013 RMK A01 T00151063  RH  056%=      5-min Rain = 0
KSLS 021248Z 34012KT 02/M06 A3013 RMK A01 T00151063  RH  056%=      5-min Rain = 0
KSLS 021249Z 34012KT 02/M06 A3013 RMK A01 T00151063  RH  056%=      5-min Rain = 0
KSLS 021250Z 34012G18KT 01/M06 A3013 RMK A01 T00141063  RH  056%=      5-min Rain = 0
KSLS 021251Z 33013KT 01/M06 A3013 RMK A01 T00141063  RH  057%=      5-min Rain = 0
KSLS 021252Z 33012KT 01/M06 A3014 RMK A01 T00141063  RH  057%=      5-min Rain = 0
KSLS 021253Z 32012KT 01/M06 A3014 RMK A01 T00131063  RH  057%=      5-min Rain = 0
KSLS 021254Z 32010KT 01/M06 A3014 RMK A01 T00121064  RH  057%=      5-min Rain = 0
KSLS 021255Z 32010KT 01/M07 A3014 RMK A01 T00101065  RH  058%=      5-min Rain = 0
KSLS 021256Z 32012G17KT 01/M06 A3014 RMK A01 T00081064  RH  058%=      5-min Rain = 0
KSLS 021257Z 32010KT 01/M06 A3014 RMK A01 T00081064  RH  059%=      5-min Rain = 0
KSLS 021258Z 33011KT 01/M06 A3014 RMK A01 T00081063  RH  059%=      5-min Rain = 0
KSLS 021259Z 33011KT 01/M06 A3014 RMK A01 T00081063  RH  059%=      5-min Rain = 0
KSLS 021300Z 32012KT 01/M06 A3014 RMK A01 T00071063  RH  059%=      5-min Rain = 0
KSLS 021301Z 32012KT 01/M06 A3014 RMK A01 T00071063  RH  060%=      5-min Rain = 0
KSLS 021302Z 32013KT 01/M06 A3014 RMK A01 T00071062  RH  060%=      5-min Rain = 0
KSLS 021303Z 32013KT 01/M06 A3014 RMK A01 T00071062  RH  060%=      5-min Rain = 0
KSLS 021304Z 32011G17KT 01/M06 A3015 RMK A01 T00071062  RH  060%=      5-min Rain = 0
KSLS 021305Z 32011KT 01/M06 A3015 RMK A01 T00061061  RH  060%=      5-min Rain = 0
KSLS 021306Z 32011KT 01/M06 A3015 RMK A01 T00061061  RH  061%=      5-min Rain = 0
KSLS 021307Z 33013KT 01/M06 A3015 RMK A01 T00051061  RH  061%=      5-min Rain = 0
KSLS 021308Z 32012G17KT 01/M06 A3015 RMK A01 T00051060  RH  061%=      5-min Rain = 0
KSLS 021309Z 32014G19KT 01/M06 A3015 RMK A01 T00061060  RH  062%=      5-min Rain = 0
KSLS 021310Z 33013KT 01/M06 A3015 RMK A01 T00061059  RH  062%=      5-min Rain = 0
KSLS 021311Z 33012KT 01/M06 A3015 RMK A01 T00061058  RH  062%=      5-min Rain = 0
KSLS 021312Z 33012KT 01/M06 A3015 RMK A01 T00071058  RH  062%=      5-min Rain = 0
KSLS 021313Z 33012KT 01/M06 A3015 RMK A01 T00071057  RH  062%=      5-min Rain = 0
KSLS 021314Z 33012G17KT 01/M06 A3015 RMK A01 T00061057  RH  063%=      5-min Rain = 0
KSLS 021315Z 33014KT 01/M06 A3015 RMK A01 T00061056  RH  063%=      5-min Rain = 0
KSLS 021316Z 33013G18KT 01/M06 A3015 RMK A01 T00061056  RH  063%=      5-min Rain = 0
KSLS 021317Z 33015KT 01/M06 A3015 RMK A01 T00061055  RH  063%=      5-min Rain = 0
KSLS 021318Z 33013G20KT 01/M06 A3015 RMK A01 T00061055  RH  064%=      5-min Rain = 0
KSLS 021319Z 33015G22KT 01/M06 A3015 RMK A01 T00071055  RH  063%=      5-min Rain = 0
KSLS 021320Z 33016KT 01/M05 A3015 RMK A01 T00071054  RH  063%=      5-min Rain = 0
KSLS 021321Z 34016G22KT 01/M05 A3015 RMK A01 T00081054  RH  063%=      5-min Rain = 0
KSLS 021322Z 33014G22KT 01/M05 A3015 RMK A01 T00081054  RH  063%=      5-min Rain = 0
KSLS 021323Z 33017KT 01/M05 A3014 RMK A01 T00081054  RH  063%=      5-min Rain = 0
KSLS 021324Z 33016G21KT 01/M05 A3014 RMK A01 T00081054  RH  063%=      5-min Rain = 0
KSLS 021325Z 33016G21KT 01/M05 A3014 RMK A01 T00091054  RH  063%=      5-min Rain = 0
KSLS 021326Z 33017G24KT 01/M05 A3014 RMK A01 T00091054  RH  063%=      5-min Rain = 0
KSLS 021327Z 33017KT 01/M05 A3014 RMK A01 T00081054  RH  063%=      5-min Rain = 0
KSLS 021328Z 33015G20KT 01/M05 A3014 RMK A01 T00081054  RH  063%=      5-min Rain = 0
KSLS 021329Z 33016G21KT 01/M05 A3014 RMK A01 T00071054  RH  064%=      5-min Rain = 0
KSLS 021330Z 33015G21KT 01/M05 A3014 RMK A01 T00071054  RH  064%=      5-min Rain = 0
KSLS 021331Z 33015KT 01/M05 A3014 RMK A01 T00071054  RH  064%=      5-min Rain = 0
KSLS 021332Z 33015G20KT 01/M05 A3014 RMK A01 T00061054  RH  064%=      5-min Rain = 0
KSLS 021333Z 33017G24KT 01/M05 A3014 RMK A01 T00061054  RH  064%=      5-min Rain = 0
KSLS 021334Z 33016KT 01/M05 A3014 RMK A01 T00071054  RH  064%=      5-min Rain = 0
KSLS 021335Z 34016G21KT 01/M06 A3014 RMK A01 T00071055  RH  064%=      5-min Rain = 0
KSLS 021336Z 33015G21KT 01/M06 A3014 RMK A01 T00071055  RH  063%=      5-min Rain = 0
KSLS 021337Z 34013G18KT 01/M06 A3014 RMK A01 T00071055  RH  063%=      5-min Rain = 0
KSLS 021338Z 33014G19KT 01/M06 A3014 RMK A01 T00061055  RH  064%=      5-min Rain = 0
KSLS 021339Z 34016G23KT 01/M06 A3014 RMK A01 T00061055  RH  064%=      5-min Rain = 0
KSLS 021340Z 34014G20KT 01/M06 A3014 RMK A01 T00061055  RH  064%=      5-min Rain = 0
KSLS 021341Z 33014G20KT 01/M06 A3014 RMK A01 T00071055  RH  063%=      5-min Rain = 0
KSLS 021342Z 33014KT 01/M06 A3014 RMK A01 T00061055  RH  063%=      5-min Rain = 0
KSLS 021343Z 33014KT 01/M06 A3014 RMK A01 T00061055  RH  063%=      5-min Rain = 0
KSLS 021344Z 33013KT 01/M06 A3014 RMK A01 T00061055  RH  064%=      5-min Rain = 0
KSLS 021345Z 33012G17KT 01/M06 A3014 RMK A01 T00061055  RH  064%=      5-min Rain = 0
KSLS 021346Z 34016G21KT 01/M06 A3014 RMK A01 T00051055  RH  064%=      5-min Rain = 0
KSLS 021347Z 33013G18KT 01/M06 A3014 RMK A01 T00061055  RH  064%=      5-min Rain = 0
KSLS 021348Z 33015G21KT 01/M06 A3015 RMK A01 T00061055  RH  064%=      5-min Rain = 0
KSLS 021349Z 33016KT 01/M06 A3015 RMK A01 T00061055  RH  064%=      5-min Rain = 0
KSLS 021350Z 33013G18KT 01/M06 A3015 RMK A01 T00071055  RH  064%=      5-min Rain = 0
KSLS 021351Z 33014KT 01/M06 A3015 RMK A01 T00071055  RH  063%=      5-min Rain = 0
KSLS 021352Z 33013KT 01/M06 A3015 RMK A01 T00061055  RH  064%=      5-min Rain = 0
KSLS 021353Z 33013KT 01/M06 A3015 RMK A01 T00061055  RH  064%=      5-min Rain = 0
KSLS 021354Z 34013G19KT 01/M05 A3015 RMK A01 T00061054  RH  064%=      5-min Rain = 0
KSLS 021355Z 33013G18KT 01/M05 A3015 RMK A01 T00061054  RH  064%=      5-min Rain = 0
KSLS 021356Z 33013G18KT 01/M05 A3015 RMK A01 T00071054  RH  064%=      5-min Rain = 0
KSLS 021357Z 33013KT 01/M05 A3015 RMK A01 T00071054  RH  064%=      5-min Rain = 0
KSLS 021358Z 33013G18KT 01/M05 A3015 RMK A01 T00071054  RH  064%=      5-min Rain = 0
KSLS 021359Z 33014KT 01/M05 A3015 RMK A01 T00071054  RH  064%=      5-min Rain = 0
KSLS 021400Z 33014KT 01/M05 A3015 RMK A01 T00081053  RH  064%=      5-min Rain = 0
KSLS 021401Z 33013G19KT 01/M05 A3015 RMK A01 T00081053  RH  063%=      5-min Rain = 0
KSLS 021402Z 33014G19KT 01/M05 A3015 RMK A01 T00081053  RH  063%=      5-min Rain = 0
KSLS 021403Z 34015KT 01/M05 A3016 RMK A01 T00091053  RH  063%=      5-min Rain = 0
KSLS 021404Z 34014G19KT 01/M05 A3016 RMK A01 T00091053  RH  063%=      5-min Rain = 0
KSLS 021405Z 34014KT 01/M05 A3016 RMK A01 T00101053  RH  063%=      5-min Rain = 0
KSLS 021406Z 34011G17KT 01/M05 A3016 RMK A01 T00101053  RH  063%=      5-min Rain = 0
KSLS 021407Z 34013KT 01/M05 A3016 RMK A01 T00101053  RH  063%=      5-min Rain = 0
KSLS 021408Z 33013G18KT 01/M05 A3016 RMK A01 T00101052  RH  063%=      5-min Rain = 0
KSLS 021409Z 33015KT 01/M05 A3016 RMK A01 T00101052  RH  063%=      5-min Rain = 0
KSLS 021410Z 33015G20KT 01/M05 A3016 RMK A01 T00101052  RH  063%=      5-min Rain = 0
KSLS 021411Z 34013G18KT 01/M05 A3016 RMK A01 T00111051  RH  063%=      5-min Rain = 0
KSLS 021412Z 33014KT 01/M05 A3016 RMK A01 T00111051  RH  063%=      5-min Rain = 0
KSLS 021413Z 33014G19KT 01/M05 A3016 RMK A01 T00111051  RH  063%=      5-min Rain = 0
KSLS 021414Z 33014KT 01/M05 A3016 RMK A01 T00111051  RH  063%=      5-min Rain = 0
KSLS 021415Z 33014G19KT 01/M05 A3016 RMK A01 T00111051  RH  063%=      5-min Rain = 0
KSLS 021416Z 33013KT 01/M05 A3016 RMK A01 T00111051  RH  064%=      5-min Rain = 0
KSLS 021417Z 33014G19KT 01/M05 A3016 RMK A01 T00101050  RH  064%=      5-min Rain = 0
KSLS 021418Z 33016KT 01/M05 A3016 RMK A01 T00111050  RH  064%=      5-min Rain = 0
KSLS 021419Z 33014KT 01/M05 A3017 RMK A01 T00111050  RH  064%=      5-min Rain = 0
KSLS 021420Z 33013KT 01/M05 A3017 RMK A01 T00111050  RH  064%=      5-min Rain = 0
KSLS 021421Z 32013KT 01/M05 A3017 RMK A01 T00121050  RH  064%=      5-min Rain = 0
KSLS 021422Z 33013KT 01/M05 A3017 RMK A01 T00121049  RH  064%=      5-min Rain = 0
KSLS 021423Z 33013G20KT 01/M05 A3017 RMK A01 T00121049  RH  064%=      5-min Rain = 0
KSLS 021424Z 33014G19KT 01/M05 A3017 RMK A01 T00121049  RH  064%=      5-min Rain = 0
KSLS 021425Z 33013G20KT 01/M05 A3017 RMK A01 T00121048  RH  064%=      5-min Rain = 0
KSLS 021426Z 33015G20KT 01/M05 A3017 RMK A01 T00121048  RH  064%=      5-min Rain = 0
KSLS 021427Z 33015G22KT 01/M05 A3017 RMK A01 T00121048  RH  064%=      5-min Rain = 0
KSLS 021428Z 33014KT 01/M05 A3017 RMK A01 T00121048  RH  064%=      5-min Rain = 0
KSLS 021429Z 32015G20KT 01/M05 A3017 RMK A01 T00131048  RH  064%=      5-min Rain = 0
KSLS 021430Z 33015KT 01/M05 A3017 RMK A01 T00131048  RH  064%=      5-min Rain = 0
KSLS 021431Z 33015G21KT 01/M05 A3017 RMK A01 T00141047  RH  064%=      5-min Rain = 0
KSLS 021432Z 33014G19KT 01/M05 A3017 RMK A01 T00141047  RH  064%=      5-min Rain = 0
KSLS 021433Z 33015G20KT 01/M05 A3017 RMK A01 T00141046  RH  064%=      5-min Rain = 0
KSLS 021434Z 33015KT 01/M05 A3017 RMK A01 T00141046  RH  065%=      5-min Rain = 0
KSLS 021435Z 34015KT 01/M05 A3017 RMK A01 T00141046  RH  065%=      5-min Rain = 0
KSLS 021436Z 34014G19KT 01/M05 A3017 RMK A01 T00141046  RH  064%=      5-min Rain = 0
KSLS 021437Z 33017G23KT 02/M05 A3017 RMK A01 T00151045  RH  064%=      5-min Rain = 0
KSLS 021438Z 34016G22KT 02/M05 A3017 RMK A01 T00161045  RH  064%=      5-min Rain = 0
KSLS 021439Z 34016G23KT 02/M04 A3017 RMK A01 T00171044  RH  064%=      5-min Rain = 0
KSLS 021440Z 34018G25KT 02/M04 A3017 RMK A01 T00181044  RH  064%=      5-min Rain = 0
KSLS 021441Z 34019G26KT 02/M04 A3017 RMK A01 T00181044  RH  063%=      5-min Rain = 0
KSLS 021442Z 35022G29KT 02/M04 A3017 RMK A01 T00191044  RH  063%=      5-min Rain = 0
KSLS 021443Z 35020G27KT 02/M04 A3017 RMK A01 T00191044  RH  063%=      5-min Rain = 0
KSLS 021444Z 35021G27KT 02/M04 A3017 RMK A01 T00201044  RH  063%=      5-min Rain = 0
KSLS 021445Z 35019KT 02/M04 A3018 RMK A01 T00211044  RH  063%=      5-min Rain = 0
KSLS 021446Z 35018G28KT 02/M04 A3018 RMK A01 T00211043  RH  062%=      5-min Rain = 0
KSLS 021447Z 36023G32KT 02/M04 A3017 RMK A01 T00221043  RH  062%=      5-min Rain = 0
KSLS 021448Z 36021G30KT 02/M04 A3017 RMK A01 T00231043  RH  062%=      5-min Rain = 0
KSLS 021449Z 35018G26KT 02/M04 A3018 RMK A01 T00241043  RH  062%=      5-min Rain = 0
KSLS 021450Z 34019G29KT 02/M04 A3018 RMK A01 T00241043  RH  062%=      5-min Rain = 0
KSLS 021451Z 35023G31KT 02/M04 A3018 RMK A01 T00241042  RH  062%=      5-min Rain = 0
KSLS 021452Z 36022G31KT 02/M04 A3018 RMK A01 T00241042  RH  062%=      5-min Rain = 0
KSLS 021453Z 35020G27KT 02/M04 A3018 RMK A01 T00241042  RH  061%=      5-min Rain = 0
KSLS 021454Z 35021G29KT 03/M04 A3018 RMK A01 T00251042  RH  061%=      5-min Rain = 0
KSLS 021455Z 36020G30KT 03/M04 A3018 RMK A01 T00261041  RH  061%=      5-min Rain = 0
KSLS 021456Z 35018G26KT 03/M04 A3018 RMK A01 T00261041  RH  061%=      5-min Rain = 0
KSLS 021457Z 35020G29KT 03/M04 A3018 RMK A01 T00271041  RH  061%=      5-min Rain = 0
KSLS 021458Z 35023G30KT 03/M04 A3018 RMK A01 T00271040  RH  061%=      5-min Rain = 0
KSLS 021459Z 35022G30KT 03/M04 A3018 RMK A01 T00271041  RH  061%=      5-min Rain = 0
KSLS 021500Z 36024G30KT 03/M04 A3018 RMK A01 T00271041  RH  061%=      5-min Rain = 0
KSLS 021501Z 35023G31KT 03/M04 A3018 RMK A01 T00271041  RH  061%=      5-min Rain = 0
KSLS 021502Z 35025G31KT 03/M04 A3018 RMK A01 T00271040  RH  061%=      5-min Rain = 0
KSLS 021503Z 35021G29KT 03/M04 A3018 RMK A01 T00271040  RH  061%=      5-min Rain = 0
KSLS 021504Z 35020G27KT 03/M04 A3018 RMK A01 T00271040  RH  062%=      5-min Rain = 0
KSLS 021505Z 35017G25KT 03/M04 A3018 RMK A01 T00271040  RH  062%=      5-min Rain = 0
KSLS 021506Z 35020G28KT 03/M04 A3018 RMK A01 T00271039  RH  062%=      5-min Rain = 0
KSLS 021507Z 35023G29KT 03/M04 A3018 RMK A01 T00271040  RH  061%=      5-min Rain = 0
KSLS 021508Z 36020G32KT 03/M04 A3018 RMK A01 T00271039  RH  061%=      5-min Rain = 0
KSLS 021509Z 35023G29KT 03/M04 A3018 RMK A01 T00271040  RH  061%=      5-min Rain = 0
KSLS 021510Z 35021G32KT 03/M04 A3018 RMK A01 T00271040  RH  061%=      5-min Rain = 0
KSLS 021511Z 35017G24KT 03/M04 A3019 RMK A01 T00281039  RH  061%=      5-min Rain = 0
KSLS 021512Z 35021G30KT 03/M04 A3019 RMK A01 T00291038  RH  061%=      5-min Rain = 0
KSLS 021513Z 35022G32KT 03/M04 A3018 RMK A01 T00291039  RH  061%=      5-min Rain = 0
KSLS 021514Z 35017G29KT 03/M04 A3019 RMK A01 T00291039  RH  061%=      5-min Rain = 0
KSLS 021515Z 35023G31KT 03/M04 A3019 RMK A01 T00301039  RH  061%=      5-min Rain = 0
KSLS 021516Z 36022G30KT 03/M04 A3019 RMK A01 T00301039  RH  060%=      5-min Rain = 0
KSLS 021517Z 36019G27KT 03/M04 A3019 RMK A01 T00311039  RH  060%=      5-min Rain = 0
KSLS 021518Z 34021G30KT 03/M04 A3019 RMK A01 T00321039  RH  060%=      5-min Rain = 0
KSLS 021519Z 00016G26KT 03/M04 A3019 RMK A01 T00321038  RH  060%=      5-min Rain = 0
KSLS 021520Z 36023G33KT 03/M04 A3019 RMK A01 T00321039  RH  060%=      5-min Rain = 0
KSLS 021521Z 00022G32KT 03/M04 A3019 RMK A01 T00321039  RH  059%=      5-min Rain = 0
KSLS 021522Z 00024G33KT 03/M04 A3019 RMK A01 T00321040  RH  059%=      5-min Rain = 0
KSLS 021523Z 35020G30KT 03/M04 A3019 RMK A01 T00321040  RH  059%=      5-min Rain = 0
KSLS 021524Z 00019G33KT 03/M04 A3019 RMK A01 T00321040  RH  059%=      5-min Rain = 0
KSLS 021525Z 35024G35KT 03/M04 A3019 RMK A01 T00321040  RH  059%=      5-min Rain = 0
KSLS 021526Z 35025G31KT 03/M04 A3019 RMK A01 T00321040  RH  059%=      5-min Rain = 0
KSLS 021527Z 35026G33KT 03/M04 A3019 RMK A01 T00321040  RH  059%=      5-min Rain = 0
KSLS 021528Z 35028G34KT 03/M04 A3019 RMK A01 T00321041  RH  059%=      5-min Rain = 0
KSLS 021529Z 35023G34KT 03/M04 A3019 RMK A01 T00321041  RH  059%=      5-min Rain = 0
KSLS 021530Z 35020G31KT 03/M04 A3019 RMK A01 T00321040  RH  059%=      5-min Rain = 0
KSLS 021531Z 36021G30KT 03/M04 A3019 RMK A01 T00321040  RH  059%=      5-min Rain = 0
KSLS 021532Z 36023G30KT 03/M04 A302 RMK A01 T00321040  RH  059%=      5-min Rain = 0
KSLS 021533Z 35021G28KT 03/M04 A302 RMK A01 T00321040  RH  059%=      5-min Rain = 0
KSLS 021534Z 35020G28KT 03/M04 A302 RMK A01 T00321040  RH  059%=      5-min Rain = 0
KSLS 021535Z 35019G27KT 03/M04 A302 RMK A01 T00321040  RH  059%=      5-min Rain = 0
KSLS 021536Z 34019G26KT 03/M04 A302 RMK A01 T00331040  RH  059%=      5-min Rain = 0
KSLS 021537Z 35021G27KT 03/M04 A302 RMK A01 T00331040  RH  059%=      5-min Rain = 0
KSLS 021538Z 00019G30KT 03/M04 A302 RMK A01 T00341040  RH  059%=      5-min Rain = 0
KSLS 021539Z 35019G29KT 03/M04 A302 RMK A01 T00341041  RH  058%=      5-min Rain = 0
KSLS 021540Z 36021G30KT 03/M04 A302 RMK A01 T00341041  RH  058%=      5-min Rain = 0
KSLS 021541Z 35021G30KT 03/M04 A302 RMK A01 T00341042  RH  058%=      5-min Rain = 0
KSLS 021542Z 35017G22KT 03/M04 A302 RMK A01 T00331041  RH  058%=      5-min Rain = 0
KSLS 021543Z 35022G28KT 03/M04 A302 RMK A01 T00331041  RH  058%=      5-min Rain = 0
KSLS 021544Z 34021G30KT 03/M04 A302 RMK A01 T00331041  RH  058%=      5-min Rain = 0
KSLS 021545Z 35022G28KT 03/M04 A302 RMK A01 T00331041  RH  059%=      5-min Rain = 0
KSLS 021546Z 35019G26KT 03/M04 A302 RMK A01 T00321041  RH  059%=      5-min Rain = 0
KSLS 021547Z 36022G30KT 03/M04 A302 RMK A01 T00321042  RH  058%=      5-min Rain = 0
KSLS 021548Z 36020G27KT 03/M04 A302 RMK A01 T00321044  RH  058%=      5-min Rain = 0
KSLS 021549Z 35023G33KT 03/M04 A3021 RMK A01 T00311044  RH  058%=      5-min Rain = 0
KSLS 021550Z 35023G31KT 03/M04 A3021 RMK A01 T00321044  RH  058%=      5-min Rain = 0
KSLS 021551Z 35028G36KT 03/M04 A302 RMK A01 T00321043  RH  058%=      5-min Rain = 0
KSLS 021552Z 36023G32KT 03/M04 A3021 RMK A01 T00311044  RH  058%=      5-min Rain = 0
KSLS 021553Z 36019G28KT 03/M04 A3021 RMK A01 T00311044  RH  058%=      5-min Rain = 0
KSLS 021554Z 36019G27KT 03/M04 A3021 RMK A01 T00311044  RH  058%=      5-min Rain = 0
KSLS 021555Z 36023G31KT 03/M04 A3021 RMK A01 T00321044  RH  058%=      5-min Rain = 0
KSLS 021556Z 00020G36KT 03/M05 A3021 RMK A01 T00321045  RH  057%=      5-min Rain = 0
KSLS 021557Z 36024G31KT 03/M05 A3021 RMK A01 T00321046  RH  057%=      5-min Rain = 0
KSLS 021558Z 35025G33KT 03/M05 A3021 RMK A01 T00321045  RH  057%=      5-min Rain = 0
KSLS 021559Z 35021G33KT 03/M05 A3021 RMK A01 T00321045  RH  057%=      5-min Rain = 0
KSLS 021600Z 36024G32KT 03/M05 A3021 RMK A01 T00321045  RH  057%=      5-min Rain = 0
KSLS 021601Z 35024G31KT 03/M05 A3021 RMK A01 T00321045  RH  057%=      5-min Rain = 0
KSLS 021602Z 00023G30KT 03/M05 A3021 RMK A01 T00321047  RH  057%=      5-min Rain = 0
KSLS 021603Z 00014G20KT 03/M05 A3022 RMK A01 T00321046  RH  057%=      5-min Rain = 0
KSLS 021604Z 00015G22KT 03/M04 A3022 RMK A01 T00331044  RH  057%=      5-min Rain = 0
KSLS 021605Z 35024G37KT 03/M05 A3022 RMK A01 T00331045  RH  057%=      5-min Rain = 0
KSLS 021606Z 35023G36KT 03/M05 A3022 RMK A01 T00331046  RH  056%=      5-min Rain = 0
KSLS 021607Z 36028G36KT 03/M05 A3021 RMK A01 T00331046  RH  056%=      5-min Rain = 0
KSLS 021608Z 00024G30KT 03/M05 A3022 RMK A01 T00321047  RH  056%=      5-min Rain = 0
KSLS 021609Z 36020G30KT 03/M05 A3022 RMK A01 T00321046  RH  056%=      5-min Rain = 0
KSLS 021610Z 00024G32KT 03/M05 A3022 RMK A01 T00321046  RH  057%=      5-min Rain = 0
KSLS 021611Z 00024G34KT 03/M05 A3022 RMK A01 T00321047  RH  056%=      5-min Rain = 0
KSLS 021612Z 00019G29KT 03/M05 A3022 RMK A01 T00321046  RH  057%=      5-min Rain = 0
KSLS 021613Z 00024G34KT 03/M05 A3022 RMK A01 T00321045  RH  057%=      5-min Rain = 0
KSLS 021614Z 35021G27KT 03/M05 A3022 RMK A01 T00321045  RH  057%=      5-min Rain = 0
KSLS 021615Z 35021G32KT 03/M05 A3022 RMK A01 T00321045  RH  057%=      5-min Rain = 0
KSLS 021616Z 00020G27KT 03/M05 A3022 RMK A01 T00321045  RH  057%=      5-min Rain = 0
KSLS 021617Z 36024G30KT 03/M05 A3022 RMK A01 T00331045  RH  057%=      5-min Rain = 0
KSLS 021618Z 35022G30KT 03/M05 A3022 RMK A01 T00331046  RH  056%=      5-min Rain = 0
KSLS 021619Z 35022G31KT 03/M05 A3022 RMK A01 T00341047  RH  055%=      5-min Rain = 0
KSLS 021620Z 35024G31KT 04/M05 A3022 RMK A01 T00351047  RH  055%=      5-min Rain = 0
KSLS 021621Z 00019G28KT 04/M05 A3022 RMK A01 T00361049  RH  054%=      5-min Rain = 0
KSLS 021622Z 00019G28KT 04/M05 A3022 RMK A01 T00371049  RH  054%=      5-min Rain = 0
KSLS 021623Z 35020G28KT 04/M05 A3022 RMK A01 T00371048  RH  054%=      5-min Rain = 0
KSLS 021624Z 35025G33KT 04/M05 A3022 RMK A01 T00371048  RH  054%=      5-min Rain = 0
KSLS 021625Z 35021G28KT 04/M05 A3022 RMK A01 T00361049  RH  054%=      5-min Rain = 0
KSLS 021626Z 35023G31KT 04/M05 A3022 RMK A01 T00361049  RH  054%=      5-min Rain = 0
KSLS 021627Z 35022G29KT 04/M05 A3022 RMK A01 T00361049  RH  054%=      5-min Rain = 0
KSLS 021628Z 36023G38KT 04/M05 A3022 RMK A01 T00361050  RH  053%=      5-min Rain = 0
KSLS 021629Z 36025G37KT 04/M05 A3022 RMK A01 T00361051  RH  053%=      5-min Rain = 0
KSLS 021630Z 00027G39KT 04/M05 A3022 RMK A01 T00351052  RH  053%=      5-min Rain = 0
KSLS 021631Z 36024G33KT 04/M05 A3022 RMK A01 T00351053  RH  053%=      5-min Rain = 0
KSLS 021632Z 36024G33KT 04/M05 A3022 RMK A01 T00351053  RH  053%=      5-min Rain = 0
KSLS 021633Z 36028G36KT 04/M05 A3022 RMK A01 T00351053  RH  053%=      5-min Rain = 0
KSLS 021634Z 35025G34KT 04/M05 A3022 RMK A01 T00351052  RH  053%=      5-min Rain = 0
KSLS 021635Z 35027G35KT 03/M05 A3022 RMK A01 T00341051  RH  053%=      5-min Rain = 0
KSLS 021636Z 35024G29KT 03/M05 A3023 RMK A01 T00341051  RH  054%=      5-min Rain = 0
KSLS 021637Z 35023G31KT 03/M05 A3023 RMK A01 T00341051  RH  054%=      5-min Rain = 0
KSLS 021638Z 35025G31KT 03/M05 A3023 RMK A01 T00341052  RH  053%=      5-min Rain = 0
KSLS 021639Z 35023G31KT 03/M05 A3023 RMK A01 T00341052  RH  053%=      5-min Rain = 0
KSLS 021640Z 00021G30KT 04/M05 A3023 RMK A01 T00351052  RH  053%=      5-min Rain = 0
KSLS 021641Z 00021G29KT 04/M05 A3023 RMK A01 T00351051  RH  053%=      5-min Rain = 0
KSLS 021642Z 35021G30KT 04/M05 A3023 RMK A01 T00351052  RH  053%=      5-min Rain = 0
KSLS 021643Z 00022G32KT 04/M05 A3023 RMK A01 T00351051  RH  053%=      5-min Rain = 0
KSLS 021644Z 00021G30KT 04/M05 A3023 RMK A01 T00351051  RH  053%=      5-min Rain = 0
KSLS 021645Z 00018G26KT 04/M05 A3023 RMK A01 T00351051  RH  053%=      5-min Rain = 0
KSLS 021646Z 01016G24KT 04/M05 A3023 RMK A01 T00351051  RH  053%=      5-min Rain = 0
KSLS 021647Z 36015G25KT 04/M05 A3023 RMK A01 T00351050  RH  054%=      5-min Rain = 0
KSLS 021648Z 36020G26KT 04/M05 A3023 RMK A01 T00351050  RH  054%=      5-min Rain = 0
KSLS 021649Z 36018G26KT 04/M05 A3024 RMK A01 T00351050  RH  054%=      5-min Rain = 0
KSLS 021650Z 36015G21KT 04/M05 A3024 RMK A01 T00351049  RH  054%=      5-min Rain = 0
KSLS 021651Z 36017G29KT 04/M05 A3024 RMK A01 T00351049  RH  054%=      5-min Rain = 0
KSLS 021652Z 36018G27KT 04/M05 A3024 RMK A01 T00351048  RH  054%=      5-min Rain = 0
KSLS 021653Z 35019G28KT 04/M05 A3024 RMK A01 T00351048  RH  055%=      5-min Rain = 0
KSLS 021654Z 35019G28KT 03/M05 A3024 RMK A01 T00341047  RH  055%=      5-min Rain = 0
KSLS 021655Z 35020G29KT 03/M05 A3024 RMK A01 T00341046  RH  056%=      5-min Rain = 0
KSLS 021656Z 36021G30KT 03/M05 A3024 RMK A01 T00341046  RH  056%=      5-min Rain = 0
KSLS 021657Z 00022G30KT 03/M05 A3024 RMK A01 T00331046  RH  056%=      5-min Rain = 0
KSLS 021658Z 36015G21KT 03/M05 A3024 RMK A01 T00331045  RH  057%=      5-min Rain = 0
KSLS 021659Z 35016G27KT 03/M05 A3024 RMK A01 T00331045  RH  057%=      5-min Rain = 0
KSLS 021700Z 35022G30KT 03/M04 A3024 RMK A01 T00331044  RH  057%=      5-min Rain = 0
KSLS 021701Z 00019G25KT 03/M04 A3024 RMK A01 T00331044  RH  057%=      5-min Rain = 0
KSLS 021702Z 35017G23KT 03/M04 A3024 RMK A01 T00331044  RH  057%=      5-min Rain = 0
KSLS 021703Z 35016G21KT 03/M04 A3024 RMK A01 T00331043  RH  057%=      5-min Rain = 0
KSLS 021704Z 34018G25KT 03/M04 A3024 RMK A01 T00341043  RH  057%=      5-min Rain = 0
KSLS 021705Z 35018G24KT 03/M04 A3024 RMK A01 T00341043  RH  057%=      5-min Rain = 0
KSLS 021706Z 35020G25KT 03/M04 A3024 RMK A01 T00341043  RH  057%=      5-min Rain = 0
KSLS 021707Z 35018KT 03/M04 A3024 RMK A01 T00341043  RH  057%=      5-min Rain = 0
KSLS 021708Z 36015G21KT 03/M04 A3024 RMK A01 T00341043  RH  057%=      5-min Rain = 0
KSLS 021709Z 36019G27KT 03/M05 A3024 RMK A01 T00341045  RH  056%=      5-min Rain = 0
KSLS 021710Z 36017G26KT 03/M05 A3024 RMK A01 T00341046  RH  056%=      5-min Rain = 0
KSLS 021711Z 36017G22KT 03/M05 A3024 RMK A01 T00341046  RH  056%=      5-min Rain = 0
KSLS 021712Z 36016G25KT 03/M05 A3024 RMK A01 T00341048  RH  055%=      5-min Rain = 0
KSLS 021713Z 36015G25KT 03/M05 A3024 RMK A01 T00341049  RH  054%=      5-min Rain = 0
KSLS 021714Z 35017G24KT 03/M05 A3024 RMK A01 T00341049  RH  054%=      5-min Rain = 0
KSLS 021715Z 34016G22KT 04/M05 A3025 RMK A01 T00351048  RH  054%=      5-min Rain = 0
KSLS 021716Z 34016G23KT 04/M05 A3025 RMK A01 T00351048  RH  055%=      5-min Rain = 0
KSLS 021717Z 34023G30KT 04/M05 A3024 RMK A01 T00351047  RH  055%=      5-min Rain = 0
KSLS 021718Z 34020G27KT 04/M05 A3024 RMK A01 T00351048  RH  055%=      5-min Rain = 0
KSLS 021719Z 35022G31KT 04/M05 A3024 RMK A01 T00351048  RH  055%=      5-min Rain = 0
KSLS 021720Z 35019G26KT 04/M05 A3024 RMK A01 T00351049  RH  054%=      5-min Rain = 0
KSLS 021721Z 35021G30KT 04/M05 A3024 RMK A01 T00351050  RH  054%=      5-min Rain = 0
KSLS 021722Z 34021G28KT 04/M05 A3024 RMK A01 T00351051  RH  053%=      5-min Rain = 0
KSLS 021723Z 34018G26KT 04/M05 A3024 RMK A01 T00351052  RH  053%=      5-min Rain = 0
KSLS 021724Z 35018G25KT 04/M05 A3024 RMK A01 T00351052  RH  053%=      5-min Rain = 0
KSLS 021725Z 34020G30KT 04/M05 A3024 RMK A01 T00351053  RH  053%=      5-min Rain = 0
KSLS 021726Z 35021G33KT 04/M05 A3024 RMK A01 T00361052  RH  053%=      5-min Rain = 0
KSLS 021727Z 35017KT 04/M05 A3024 RMK A01 T00361053  RH  052%=      5-min Rain = 0
KSLS 021728Z 35020G30KT 04/M05 A3024 RMK A01 T00361053  RH  052%=      5-min Rain = 0
KSLS 021729Z 00024G34KT 04/M06 A3024 RMK A01 T00361055  RH  051%=      5-min Rain = 0
KSLS 021730Z 00024G30KT 04/M06 A3024 RMK A01 T00351056  RH  051%=      5-min Rain = 0
KSLS 021731Z 00022G31KT 04/M06 A3024 RMK A01 T00351056  RH  052%=      5-min Rain = 0
KSLS 021732Z 36020G28KT 03/M06 A3024 RMK A01 T00341055  RH  052%=      5-min Rain = 0
KSLS 021733Z 36018G23KT 03/M05 A3024 RMK A01 T00341054  RH  053%=      5-min Rain = 0
KSLS 021734Z 36018G27KT 03/M05 A3025 RMK A01 T00341053  RH  053%=      5-min Rain = 0
KSLS 021735Z 36019G28KT 03/M05 A3025 RMK A01 T00341053  RH  053%=      5-min Rain = 0
KSLS 021736Z 00021G26KT 03/M05 A3024 RMK A01 T00341053  RH  053%=      5-min Rain = 0
KSLS 021737Z 00020G26KT 03/M05 A3025 RMK A01 T00341053  RH  053%=      5-min Rain = 0
KSLS 021738Z 35018G25KT 03/M05 A3025 RMK A01 T00341053  RH  053%=      5-min Rain = 0
KSLS 021739Z 35014G19KT 03/M05 A3025 RMK A01 T00341051  RH  054%=      5-min Rain = 0
KSLS 021740Z 34016G23KT 03/M05 A3025 RMK A01 T00341050  RH  054%=      5-min Rain = 0
KSLS 021741Z 34017G23KT 03/M05 A3025 RMK A01 T00341049  RH  054%=      5-min Rain = 0
KSLS 021742Z 35017G25KT 03/M05 A3025 RMK A01 T00341049  RH  054%=      5-min Rain = 0
KSLS 021743Z 35022KT 04/M05 A3025 RMK A01 T00351049  RH  054%=      5-min Rain = 0
KSLS 021744Z 35020G25KT 04/M05 A3025 RMK A01 T00351050  RH  054%=      5-min Rain = 0
KSLS 021745Z 35019G27KT 03/M05 A3024 RMK A01 T00341050  RH  054%=      5-min Rain = 0
KSLS 021746Z 34021G29KT 03/M05 A3024 RMK A01 T00341051  RH  054%=      5-min Rain = 0
KSLS 021747Z 35020G25KT 03/M05 A3024 RMK A01 T00341052  RH  053%=      5-min Rain = 0
KSLS 021748Z 35019G25KT 03/M05 A3024 RMK A01 T00341052  RH  053%=      5-min Rain = 0
KSLS 021749Z 35019G26KT 04/M05 A3024 RMK A01 T00351053  RH  053%=      5-min Rain = 0
KSLS 021750Z 35016G22KT 04/M05 A3024 RMK A01 T00361053  RH  052%=      5-min Rain = 0
KSLS 021751Z 35022G32KT 04/M05 A3024 RMK A01 T00361053  RH  052%=      5-min Rain = 0
KSLS 021752Z 35021G29KT 04/M05 A3024 RMK A01 T00361054  RH  052%=      5-min Rain = 0
KSLS 021753Z 36021G31KT 04/M05 A3024 RMK A01 T00361054  RH  052%=      5-min Rain = 0
KSLS 021754Z 36021G29KT 04/M05 A3024 RMK A01 T00361053  RH  052%=      5-min Rain = 0
KSLS 021755Z 35021G28KT 04/M05 A3024 RMK A01 T00351053  RH  052%=      5-min Rain = 0
KSLS 021756Z 35020G30KT 04/M05 A3024 RMK A01 T00351053  RH  052%=      5-min Rain = 0
KSLS 021757Z 35023G30KT 04/M05 A3024 RMK A01 T00361054  RH  052%=      5-min Rain = 0
KSLS 021758Z 35021G27KT 04/M05 A3024 RMK A01 T00351054  RH  052%=      5-min Rain = 0
KSLS 021759Z 35017G24KT 04/M05 A3024 RMK A01 T00351053  RH  052%=      5-min Rain = 0
KSLS 021800Z 36017G27KT 04/M05 A3024 RMK A01 T00351052  RH  053%=      5-min Rain = 0
KSLS 021801Z 36019G28KT 04/M05 A3024 RMK A01 T00351052  RH  053%=      5-min Rain = 0
KSLS 021802Z 00016G24KT 04/M05 A3024 RMK A01 T00351052  RH  053%=      5-min Rain = 0
KSLS 021803Z 00017G22KT 04/M05 A3024 RMK A01 T00351052  RH  053%=      5-min Rain = 0
KSLS 021804Z 35018G24KT 04/M05 A3024 RMK A01 T00361052  RH  053%=      5-min Rain = 0
KSLS 021805Z 35016G24KT 04/M05 A3024 RMK A01 T00361052  RH  052%=      5-min Rain = 0
KSLS 021806Z 35018G25KT 04/M05 A3024 RMK A01 T00371052  RH  052%=      5-min Rain = 0
KSLS 021807Z 35019G24KT 04/M05 A3024 RMK A01 T00371052  RH  052%=      5-min Rain = 0
KSLS 021808Z 35019G25KT 04/M05 A3024 RMK A01 T00361051  RH  053%=      5-min Rain = 0
KSLS 021809Z 35017G23KT 04/M05 A3024 RMK A01 T00361050  RH  054%=      5-min Rain = 0
KSLS 021810Z 34013G18KT 04/M05 A3024 RMK A01 T00361049  RH  054%=      5-min Rain = 0
KSLS 021811Z 33016G22KT 04/M05 A3024 RMK A01 T00361047  RH  055%=      5-min Rain = 0
KSLS 021812Z 34017G23KT 04/M05 A3024 RMK A01 T00361046  RH  055%=      5-min Rain = 0
KSLS 021813Z 34015G21KT 04/M05 A3024 RMK A01 T00361045  RH  055%=      5-min Rain = 0
KSLS 021814Z 35016G22KT 04/M05 A3024 RMK A01 T00361046  RH  055%=      5-min Rain = 0
KSLS 021815Z 34015G23KT 04/M05 A3024 RMK A01 T00361046  RH  055%=      5-min Rain = 0
KSLS 021816Z 34018G26KT 04/M05 A3024 RMK A01 T00361046  RH  055%=      5-min Rain = 0
KSLS 021817Z 33022G28KT 04/M05 A3024 RMK A01 T00371048  RH  054%=      5-min Rain = 0
KSLS 021818Z 34018G23KT 04/M05 A3024 RMK A01 T00361049  RH  054%=      5-min Rain = 0
KSLS 021819Z 35020KT 04/M05 A3024 RMK A01 T00361050  RH  053%=      5-min Rain = 0
KSLS 021820Z 34017KT 04/M05 A3024 RMK A01 T00361050  RH  053%=      5-min Rain = 0
KSLS 021821Z 34014G21KT 04/M05 A3024 RMK A01 T00361049  RH  054%=      5-min Rain = 0
KSLS 021822Z 34018G24KT 04/M05 A3024 RMK A01 T00361049  RH  054%=      5-min Rain = 0
KSLS 021823Z 35014G21KT 04/M05 A3024 RMK A01 T00361049  RH  054%=      5-min Rain = 0
KSLS 021824Z 34016G23KT 04/M05 A3024 RMK A01 T00361049  RH  054%=      5-min Rain = 0
KSLS 021825Z 35014G19KT 04/M05 A3024 RMK A01 T00361048  RH  054%=      5-min Rain = 0
KSLS 021826Z 36014G21KT 04/M05 A3024 RMK A01 T00361048  RH  054%=      5-min Rain = 0
KSLS 021827Z 35018G24KT 04/M05 A3024 RMK A01 T00361049  RH  054%=      5-min Rain = 0
KSLS 021828Z 35022G28KT 04/M05 A3024 RMK A01 T00361049  RH  054%=      5-min Rain = 0
KSLS 021829Z 35018G24KT 04/M05 A3024 RMK A01 T00351050  RH  054%=      5-min Rain = 0
KSLS 021830Z 35016G21KT 04/M05 A3024 RMK A01 T00351049  RH  054%=      5-min Rain = 0
KSLS 021831Z 35016KT 04/M05 A3024 RMK A01 T00351049  RH  054%=      5-min Rain = 0
KSLS 021832Z 35017G24KT 04/M05 A3024 RMK A01 T00351048  RH  054%=      5-min Rain = 0
KSLS 021833Z 35015G23KT 04/M05 A3024 RMK A01 T00361049  RH  054%=      5-min Rain = 0
KSLS 021834Z 35018G25KT 04/M05 A3024 RMK A01 T00351049  RH  054%=      5-min Rain = 0
KSLS 021835Z 35019G25KT 04/M05 A3024 RMK A01 T00351049  RH  054%=      5-min Rain = 0
KSLS 021836Z 35020G29KT 04/M05 A3024 RMK A01 T00351049  RH  054%=      5-min Rain = 0
KSLS 021837Z 35018G24KT 04/M05 A3024 RMK A01 T00351048  RH  054%=      5-min Rain = 0
KSLS 021838Z 35017G24KT 04/M05 A3024 RMK A01 T00351048  RH  055%=      5-min Rain = 0
KSLS 021839Z 35019G27KT 03/M05 A3024 RMK A01 T00341048  RH  055%=      5-min Rain = 0
KSLS 021840Z 35019G24KT 03/M05 A3024 RMK A01 T00341049  RH  055%=      5-min Rain = 0
KSLS 021841Z 35017G24KT 03/M05 A3024 RMK A01 T00341049  RH  055%=      5-min Rain = 0
KSLS 021842Z 35014G19KT 04/M05 A3024 RMK A01 T00351048  RH  055%=      5-min Rain = 0
KSLS 021843Z 35018G23KT 04/M05 A3024 RMK A01 T00351049  RH  054%=      5-min Rain = 0
KSLS 021844Z 36014G20KT 04/M05 A3024 RMK A01 T00351049  RH  054%=      5-min Rain = 0
KSLS 021845Z 35014G20KT 04/M05 A3024 RMK A01 T00351049  RH  054%=      5-min Rain = 0
KSLS 021846Z 34020G27KT 04/M05 A3024 RMK A01 T00351048  RH  054%=      5-min Rain = 0
KSLS 021847Z 35020G25KT 04/M05 A3024 RMK A01 T00351049  RH  054%=      5-min Rain = 0
KSLS 021848Z 35014G22KT 03/M05 A3024 RMK A01 T00341049  RH  055%=      5-min Rain = 0
KSLS 021849Z 36017G23KT 03/M05 A3024 RMK A01 T00341048  RH  055%=      5-min Rain = 0
KSLS 021850Z 35015G20KT 03/M05 A3024 RMK A01 T00341048  RH  055%=      5-min Rain = 0
KSLS 021851Z 35016G22KT 03/M05 A3023 RMK A01 T00341047  RH  055%=      5-min Rain = 0
KSLS 021852Z 34020G28KT 03/M05 A3023 RMK A01 T00341047  RH  056%=      5-min Rain = 0
KSLS 021853Z 35020G27KT 03/M05 A3023 RMK A01 T00341047  RH  056%=      5-min Rain = 0
KSLS 021854Z 35017G24KT 03/M05 A3024 RMK A01 T00331046  RH  056%=      5-min Rain = 0
KSLS 021855Z 35016G23KT 03/M05 A3023 RMK A01 T00331046  RH  056%=      5-min Rain = 0
KSLS 021856Z 35018G25KT 03/M05 A3023 RMK A01 T00331045  RH  056%=      5-min Rain = 0
KSLS 021857Z 35013G18KT 03/M05 A3024 RMK A01 T00331045  RH  056%=      5-min Rain = 0
KSLS 021858Z 35020G27KT 03/M05 A3023 RMK A01 T00331046  RH  056%=      5-min Rain = 0
KSLS 021859Z 36019G25KT 03/M05 A3023 RMK A01 T00331047  RH  056%=      5-min Rain = 0
KSLS 021900Z 35020G26KT 03/M05 A3023 RMK A01 T00331047  RH  056%=      5-min Rain = 0
KSLS 021901Z 35018G25KT 03/M05 A3023 RMK A01 T00321047  RH  056%=      5-min Rain = 0
KSLS 021902Z 35015G20KT 03/M05 A3023 RMK A01 T00321046  RH  056%=      5-min Rain = 0
KSLS 021903Z 35014KT 03/M05 A3023 RMK A01 T00321046  RH  057%=      5-min Rain = 0
KSLS 021904Z 35016G23KT 03/M05 A3023 RMK A01 T00331046  RH  056%=      5-min Rain = 0
KSLS 021905Z 35020KT 03/M05 A3023 RMK A01 T00331046  RH  056%=      5-min Rain = 0
KSLS 021906Z 35017G22KT 03/M05 A3023 RMK A01 T00331047  RH  056%=      5-min Rain = 0
KSLS 021907Z 35018G23KT 03/M05 A3023 RMK A01 T00331047  RH  056%=      5-min Rain = 0
KSLS 021908Z 35017KT 03/M05 A3023 RMK A01 T00331047  RH  056%=      5-min Rain = 0
KSLS 021909Z 34013G19KT 03/M05 A3024 RMK A01 T00331047  RH  056%=      5-min Rain = 0
KSLS 021910Z 34016G23KT 03/M05 A3023 RMK A01 T00331046  RH  056%=      5-min Rain = 0
KSLS 021911Z 35015G22KT 03/M05 A3023 RMK A01 T00331048  RH  055%=      5-min Rain = 0
KSLS 021912Z 35016G22KT 03/M05 A3023 RMK A01 T00341048  RH  055%=      5-min Rain = 0
KSLS 021913Z 34015G22KT 03/M05 A3023 RMK A01 T00341049  RH  055%=      5-min Rain = 0
KSLS 021914Z 34017G22KT 03/M05 A3023 RMK A01 T00341049  RH  054%=      5-min Rain = 0
KSLS 021915Z 34018G26KT 03/M05 A3023 RMK A01 T00341050  RH  054%=      5-min Rain = 0
KSLS 021916Z 34020G27KT 03/M05 A3023 RMK A01 T00341051  RH  054%=      5-min Rain = 0
KSLS 021917Z 35017G26KT 03/M05 A3023 RMK A01 T00341052  RH  053%=      5-min Rain = 0
KSLS 021918Z 35020G28KT 03/M05 A3023 RMK A01 T00341052  RH  053%=      5-min Rain = 0
KSLS 021919Z 35019G24KT 03/M05 A3023 RMK A01 T00341052  RH  053%=      5-min Rain = 0
KSLS 021920Z 34015G25KT 03/M05 A3023 RMK A01 T00341052  RH  053%=      5-min Rain = 0
KSLS 021921Z 34019G27KT 04/M05 A3023 RMK A01 T00351052  RH  053%=      5-min Rain = 0
KSLS 021922Z 35018G25KT 04/M05 A3023 RMK A01 T00351052  RH  053%=      5-min Rain = 0
KSLS 021923Z 35019G26KT 04/M05 A3023 RMK A01 T00361052  RH  053%=      5-min Rain = 0
KSLS 021924Z 36019G24KT 04/M05 A3023 RMK A01 T00361052  RH  053%=      5-min Rain = 0
KSLS 021925Z 36020G27KT 04/M05 A3023 RMK A01 T00361052  RH  053%=      5-min Rain = 0
KSLS 021926Z 36018G25KT 04/M05 A3023 RMK A01 T00361052  RH  053%=      5-min Rain = 0
KSLS 021927Z 35018G23KT 04/M05 A3023 RMK A01 T00361052  RH  053%=      5-min Rain = 0
KSLS 021928Z 35019G26KT 04/M05 A3023 RMK A01 T00361052  RH  053%=      5-min Rain = 0
KSLS 021929Z 35017G26KT 04/M05 A3023 RMK A01 T00361052  RH  053%=      5-min Rain = 0
KSLS 021930Z 34017G24KT 04/M05 A3023 RMK A01 T00361051  RH  053%=      5-min Rain = 0
KSLS 021931Z 34018G25KT 04/M05 A3023 RMK A01 T00371051  RH  053%=      5-min Rain = 0
KSLS 021932Z 35015G21KT 04/M05 A3023 RMK A01 T00371051  RH  053%=      5-min Rain = 0
KSLS 021933Z 35017G23KT 04/M05 A3023 RMK A01 T00371050  RH  053%=      5-min Rain = 0
KSLS 021934Z 34019G24KT 04/M05 A3023 RMK A01 T00361049  RH  054%=      5-min Rain = 0
KSLS 021935Z 34015KT 04/M05 A3023 RMK A01 T00351048  RH  055%=      5-min Rain = 0
KSLS 021936Z 34015G20KT 04/M05 A3023 RMK A01 T00351047  RH  055%=      5-min Rain = 0
KSLS 021937Z 34014G19KT 04/M05 A3023 RMK A01 T00351046  RH  055%=      5-min Rain = 0
KSLS 021938Z 34018G23KT 04/M05 A3023 RMK A01 T00351046  RH  055%=      5-min Rain = 0
KSLS 021939Z 35018G24KT 04/M05 A3023 RMK A01 T00351046  RH  055%=      5-min Rain = 0
KSLS 021940Z 35018G24KT 04/M05 A3023 RMK A01 T00351047  RH  055%=      5-min Rain = 0
KSLS 021941Z 35016G27KT 04/M05 A3023 RMK A01 T00351046  RH  055%=      5-min Rain = 0
KSLS 021942Z 36021G28KT 04/M05 A3022 RMK A01 T00351046  RH  056%=      5-min Rain = 0
KSLS 021943Z 35017G25KT 04/M05 A3022 RMK A01 T00351046  RH  055%=      5-min Rain = 0
KSLS 021944Z 35017G26KT 04/M05 A3023 RMK A01 T00351046  RH  055%=      5-min Rain = 0
KSLS 021945Z 35017G24KT 04/M05 A3022 RMK A01 T00351047  RH  055%=      5-min Rain = 0
KSLS 021946Z 35013G19KT 04/M05 A3023 RMK A01 T00351046  RH  055%=      5-min Rain = 0
KSLS 021947Z 36015KT 04/M05 A3022 RMK A01 T00361046  RH  055%=      5-min Rain = 0
KSLS 021948Z 34012G17KT 04/M05 A3023 RMK A01 T00371046  RH  055%=      5-min Rain = 0
KSLS 021949Z 34016G25KT 04/M05 A3023 RMK A01 T00371045  RH  055%=      5-min Rain = 0
KSLS 021950Z 34016G21KT 04/M05 A3023 RMK A01 T00381046  RH  054%=      5-min Rain = 0
KSLS 021951Z 34013G18KT 04/M05 A3023 RMK A01 T00381047  RH  054%=      5-min Rain = 0
KSLS 021952Z 33017G22KT 04/M05 A3023 RMK A01 T00391046  RH  054%=      5-min Rain = 0
KSLS 021953Z 34017G26KT 04/M05 A3023 RMK A01 T00391046  RH  054%=      5-min Rain = 0
KSLS 021954Z 34016G22KT 04/M05 A3023 RMK A01 T00381046  RH  054%=      5-min Rain = 0
KSLS 021955Z 34017G22KT 04/M05 A3023 RMK A01 T00381046  RH  054%=      5-min Rain = 0
KSLS 021956Z 33017G26KT 04/M05 A3023 RMK A01 T00381046  RH  054%=      5-min Rain = 0
KSLS 021957Z 33018KT 04/M05 A3024 RMK A01 T00371046  RH  054%=      5-min Rain = 0
KSLS 021958Z 34017G24KT 04/M05 A3023 RMK A01 T00371047  RH  054%=      5-min Rain = 0
KSLS 021959Z 34019G24KT 04/M05 A3023 RMK A01 T00371046  RH  055%=      5-min Rain = 0
KSLS 022000Z 34016G24KT 04/M05 A3023 RMK A01 T00371047  RH  055%=      5-min Rain = 0
KSLS 022001Z 34018G24KT 04/M05 A3023 RMK A01 T00361047  RH  055%=      5-min Rain = 0
KSLS 022002Z 33019G26KT 04/M05 A3023 RMK A01 T00361047  RH  055%=      5-min Rain = 0
KSLS 022003Z 34022KT 04/M05 A3023 RMK A01 T00361047  RH  054%=      5-min Rain = 0
KSLS 022004Z 33017G24KT 04/M05 A3024 RMK A01 T00361047  RH  054%=      5-min Rain = 0
KSLS 022005Z 33020G26KT 04/M05 A3023 RMK A01 T00361045  RH  056%=      5-min Rain = 0
KSLS 022006Z 33021G29KT 04/M04 A3023 RMK A01 T00351043  RH  056%=      5-min Rain = 0
KSLS 022007Z 33019G24KT 03/M04 A3023 RMK A01 T00341043  RH  057%=      5-min Rain = 0
KSLS 022008Z 33020G27KT 03/M04 A3023 RMK A01 T00341042  RH  057%=      5-min Rain = 0
KSLS 022009Z 33022G30KT 03/M04 A3023 RMK A01 T00331042  RH  058%=      5-min Rain = 0
KSLS 022010Z 33019G27KT 03/M04 A3023 RMK A01 T00331042  RH  058%=      5-min Rain = 0
KSLS 022011Z 33021G29KT 03/M04 A3023 RMK A01 T00321042  RH  058%=      5-min Rain = 0
KSLS 022012Z 33020G26KT 03/M04 A3023 RMK A01 T00321042  RH  058%=      5-min Rain = 0
KSLS 022013Z 34022G27KT 03/M04 A3023 RMK A01 T00321043  RH  058%=      5-min Rain = 0
KSLS 022014Z 33018G25KT 03/M04 A3023 RMK A01 T00321043  RH  058%=      5-min Rain = 0
KSLS 022015Z 33019G27KT 03/M04 A3023 RMK A01 T00321043  RH  058%=      5-min Rain = 0
KSLS 022016Z 33018G26KT 03/M04 A3023 RMK A01 T00321043  RH  058%=      5-min Rain = 0
KSLS 022017Z 33018G25KT 03/M04 A3023 RMK A01 T00331044  RH  057%=      5-min Rain = 0
KSLS 022018Z 33021G27KT 03/M04 A3023 RMK A01 T00331044  RH  057%=      5-min Rain = 0
KSLS 022019Z 33022G29KT 03/M05 A3023 RMK A01 T00331045  RH  056%=      5-min Rain = 0
KSLS 022020Z 33021G27KT 03/M05 A3023 RMK A01 T00331046  RH  056%=      5-min Rain = 0
KSLS 022021Z 33017G23KT 03/M05 A3022 RMK A01 T00331047  RH  056%=      5-min Rain = 0
KSLS 022022Z 33021G29KT 03/M05 A3022 RMK A01 T00331047  RH  056%=      5-min Rain = 0
KSLS 022023Z 34019G29KT 03/M05 A3022 RMK A01 T00331048  RH  055%=      5-min Rain = 0
KSLS 022024Z 34022G28KT 03/M05 A3022 RMK A01 T00331049  RH  055%=      5-min Rain = 0
KSLS 022025Z 34020G27KT 03/M05 A3022 RMK A01 T00331050  RH  055%=      5-min Rain = 0
KSLS 022026Z 35019G25KT 03/M05 A3022 RMK A01 T00331050  RH  055%=      5-min Rain = 0
KSLS 022027Z 35016G23KT 03/M05 A3022 RMK A01 T00331050  RH  054%=      5-min Rain = 0
KSLS 022028Z 34013KT 03/M05 A3022 RMK A01 T00341050  RH  054%=      5-min Rain = 0
KSLS 022029Z 35014KT 04/M05 A3022 RMK A01 T00351049  RH  054%=      5-min Rain = 0
KSLS 022030Z 34015G22KT 04/M05 A3022 RMK A01 T00351050  RH  054%=      5-min Rain = 0
KSLS 022031Z 34018G24KT 04/M05 A3022 RMK A01 T00351051  RH  053%=      5-min Rain = 0
KSLS 022032Z 34013KT 04/M05 A3022 RMK A01 T00361051  RH  053%=      5-min Rain = 0
KSLS 022033Z 34019G29KT 04/M05 A3022 RMK A01 T00361052  RH  053%=      5-min Rain = 0
KSLS 022034Z 34021G28KT 04/M05 A3022 RMK A01 T00361053  RH  052%=      5-min Rain = 0
KSLS 022035Z 34016G23KT 04/M05 A3022 RMK A01 T00351053  RH  053%=      5-min Rain = 0
KSLS 022036Z 34021G27KT 04/M05 A3022 RMK A01 T00351052  RH  053%=      5-min Rain = 0
KSLS 022037Z 34021G27KT 04/M05 A3022 RMK A01 T00361052  RH  053%=      5-min Rain = 0
KSLS 022038Z 34019G25KT 04/M05 A3022 RMK A01 T00361052  RH  053%=      5-min Rain = 0
KSLS 022039Z 34015G21KT 04/M05 A3022 RMK A01 T00361051  RH  053%=      5-min Rain = 0
KSLS 022040Z 34017G25KT 04/M05 A3022 RMK A01 T00371051  RH  053%=      5-min Rain = 0
KSLS 022041Z 34020G27KT 04/M05 A3022 RMK A01 T00371051  RH  053%=      5-min Rain = 0
KSLS 022042Z 34019G28KT 04/M05 A3022 RMK A01 T00361051  RH  053%=      5-min Rain = 0
KSLS 022043Z 34022G29KT 04/M05 A3022 RMK A01 T00361051  RH  053%=      5-min Rain = 0
KSLS 022044Z 33019G28KT 04/M05 A3022 RMK A01 T00351052  RH  053%=      5-min Rain = 0
KSLS 022045Z 34021G28KT 04/M05 A3022 RMK A01 T00351052  RH  053%=      5-min Rain = 0
KSLS 022046Z 34019G26KT 04/M05 A3022 RMK A01 T00351052  RH  053%=      5-min Rain = 0
KSLS 022047Z 35019G26KT 04/M05 A3022 RMK A01 T00351052  RH  053%=      5-min Rain = 0
KSLS 022048Z 34017G26KT 04/M05 A3022 RMK A01 T00351051  RH  053%=      5-min Rain = 0
KSLS 022049Z 35021G27KT 04/M05 A3022 RMK A01 T00351051  RH  053%=      5-min Rain = 0
KSLS 022050Z 34018G25KT 04/M05 A3022 RMK A01 T00351052  RH  053%=      5-min Rain = 0
KSLS 022051Z 34017G23KT 03/M05 A3022 RMK A01 T00341051  RH  053%=      5-min Rain = 0
KSLS 022052Z 33015G21KT 04/M05 A3022 RMK A01 T00351051  RH  054%=      5-min Rain = 0
KSLS 022053Z 33016G23KT 04/M05 A3022 RMK A01 T00351050  RH  054%=      5-min Rain = 0
KSLS 022054Z 33017G22KT 04/M05 A3022 RMK A01 T00361049  RH  054%=      5-min Rain = 0
KSLS 022055Z 33017G27KT 04/M05 A3022 RMK A01 T00361048  RH  054%=      5-min Rain = 0
KSLS 022056Z 33020G28KT 04/M05 A3022 RMK A01 T00351046  RH  055%=      5-min Rain = 0
KSLS 022057Z 33017G23KT 03/M05 A3022 RMK A01 T00341045  RH  056%=      5-min Rain = 0
KSLS 022058Z 33020G27KT 03/M04 A3022 RMK A01 T00331044  RH  057%=      5-min Rain = 0
KSLS 022059Z 33017G25KT 03/M04 A3022 RMK A01 T00331044  RH  057%=      5-min Rain = 0
KSLS 022100Z 33017G27KT 03/M04 A3022 RMK A01 T00331043  RH  057%=      5-min Rain = 0
KSLS 022101Z 33019G28KT 03/M04 A3022 RMK A01 T00331044  RH  057%=      5-min Rain = 0
KSLS 022102Z 33021G27KT 03/M05 A3022 RMK A01 T00331045  RH  056%=      5-min Rain = 0
KSLS 022103Z 34018G26KT 03/M05 A3022 RMK A01 T00331045  RH  056%=      5-min Rain = 0
KSLS 022104Z 34020G30KT 03/M05 A3022 RMK A01 T00331046  RH  056%=      5-min Rain = 0
KSLS 022105Z 35021G28KT 03/M05 A3022 RMK A01 T00331046  RH  056%=      5-min Rain = 0
KSLS 022106Z 35020G25KT 03/M05 A3022 RMK A01 T00321046  RH  056%=      5-min Rain = 0
KSLS 022107Z 34014G20KT 03/M05 A3022 RMK A01 T00321046  RH  057%=      5-min Rain = 0
KSLS 022108Z 35016G25KT 03/M05 A3022 RMK A01 T00331045  RH  057%=      5-min Rain = 0
KSLS 022109Z 34019G28KT 03/M05 A3022 RMK A01 T00331046  RH  056%=      5-min Rain = 0
KSLS 022110Z 34019G26KT 03/M05 A3022 RMK A01 T00331047  RH  055%=      5-min Rain = 0
KSLS 022111Z 34019G26KT 03/M05 A3022 RMK A01 T00331048  RH  055%=      5-min Rain = 0
KSLS 022112Z 34015G22KT 03/M05 A3022 RMK A01 T00331048  RH  055%=      5-min Rain = 0
KSLS 022113Z 33017G26KT 03/M05 A3022 RMK A01 T00331048  RH  055%=      5-min Rain = 0
KSLS 022114Z 34019G26KT 03/M05 A3022 RMK A01 T00341048  RH  055%=      5-min Rain = 0
KSLS 022115Z 34017G25KT 03/M05 A3022 RMK A01 T00341048  RH  055%=      5-min Rain = 0
KSLS 022116Z 35018G25KT 03/M05 A3022 RMK A01 T00341048  RH  055%=      5-min Rain = 0
KSLS 022117Z 34016G23KT 03/M05 A3022 RMK A01 T00341048  RH  055%=      5-min Rain = 0
KSLS 022118Z 33020KT 03/M05 A3022 RMK A01 T00341048  RH  055%=      5-min Rain = 0
KSLS 022119Z 33020G27KT 03/M05 A3022 RMK A01 T00341049  RH  055%=      5-min Rain = 0
KSLS 022120Z 33016G25KT 03/M05 A3022 RMK A01 T00331050  RH  055%=      5-min Rain = 0
KSLS 022121Z 33014G23KT 03/M05 A3022 RMK A01 T00331050  RH  055%=      5-min Rain = 0
KSLS 022122Z 34015G22KT 03/M05 A3022 RMK A01 T00341050  RH  054%=      5-min Rain = 0
KSLS 022123Z 34015G23KT 03/M05 A3022 RMK A01 T00341049  RH  054%=      5-min Rain = 0
KSLS 022124Z 34015G22KT 04/M05 A3022 RMK A01 T00351050  RH  054%=      5-min Rain = 0
KSLS 022125Z 33015G22KT 04/M05 A3022 RMK A01 T00351050  RH  054%=      5-min Rain = 0
KSLS 022126Z 34016G21KT 03/M05 A3022 RMK A01 T00341050  RH  054%=      5-min Rain = 0
KSLS 022127Z 34015G20KT 03/M05 A3022 RMK A01 T00341050  RH  054%=      5-min Rain = 0
KSLS 022128Z 35014G26KT 03/M05 A3022 RMK A01 T00341050  RH  054%=      5-min Rain = 0
KSLS 022129Z 35017G23KT 03/M05 A3022 RMK A01 T00341051  RH  054%=      5-min Rain = 0
KSLS 022130Z 34014G21KT 03/M05 A3022 RMK A01 T00341051  RH  054%=      5-min Rain = 0
KSLS 022131Z 33018G25KT 03/M05 A3022 RMK A01 T00341051  RH  054%=      5-min Rain = 0
KSLS 022132Z 34020G26KT 03/M05 A3022 RMK A01 T00341052  RH  053%=      5-min Rain = 0
KSLS 022133Z 34018G24KT 03/M05 A3022 RMK A01 T00341052  RH  053%=      5-min Rain = 0
KSLS 022134Z 33019G29KT 03/M05 A3023 RMK A01 T00341053  RH  053%=      5-min Rain = 0
KSLS 022135Z 34022G30KT 03/M05 A3022 RMK A01 T00341053  RH  053%=      5-min Rain = 0
KSLS 022136Z 33019G24KT 03/M05 A3023 RMK A01 T00331054  RH  053%=      5-min Rain = 0
KSLS 022137Z 34018G26KT 03/M05 A3023 RMK A01 T00331053  RH  053%=      5-min Rain = 0
KSLS 022138Z 34019G26KT 03/M05 A3023 RMK A01 T00331054  RH  053%=      5-min Rain = 0
KSLS 022139Z 34017G25KT 03/M05 A3022 RMK A01 T00331054  RH  053%=      5-min Rain = 0
KSLS 022140Z 34018G25KT 03/M06 A3023 RMK A01 T00331055  RH  052%=      5-min Rain = 0
KSLS 022141Z 34016G22KT 03/M06 A3022 RMK A01 T00331055  RH  052%=      5-min Rain = 0
KSLS 022142Z 35015G20KT 03/M05 A3023 RMK A01 T00331054  RH  053%=      5-min Rain = 0
KSLS 022143Z 34015G21KT 03/M05 A3023 RMK A01 T00331054  RH  053%=      5-min Rain = 0
KSLS 022144Z 34014G20KT 03/M05 A3023 RMK A01 T00331054  RH  053%=      5-min Rain = 0
KSLS 022145Z 34015KT 03/M05 A3023 RMK A01 T00341054  RH  053%=      5-min Rain = 0
KSLS 022146Z 34013G19KT 03/M05 A3023 RMK A01 T00341053  RH  053%=      5-min Rain = 0
KSLS 022147Z 34015G21KT 03/M05 A3023 RMK A01 T00341053  RH  053%=      5-min Rain = 0
KSLS 022148Z 33018G24KT 03/M05 A3023 RMK A01 T00341054  RH  053%=      5-min Rain = 0
KSLS 022149Z 34018G24KT 03/M06 A3023 RMK A01 T00341055  RH  052%=      5-min Rain = 0
KSLS 022150Z 33017G23KT 03/M06 A3023 RMK A01 T00341055  RH  052%=      5-min Rain = 0
KSLS 022151Z 33018G25KT 03/M06 A3023 RMK A01 T00341056  RH  052%=      5-min Rain = 0
KSLS 022152Z 34018G24KT 03/M06 A3023 RMK A01 T00341056  RH  052%=      5-min Rain = 0
KSLS 022153Z 34020G27KT 03/M06 A3023 RMK A01 T00331056  RH  052%=      5-min Rain = 0
KSLS 022154Z 34017G23KT 03/M06 A3023 RMK A01 T00331056  RH  052%=      5-min Rain = 0
KSLS 022155Z 33017G22KT 03/M06 A3023 RMK A01 T00331056  RH  052%=      5-min Rain = 0
KSLS 022156Z 34019G24KT 03/M06 A3023 RMK A01 T00331056  RH  052%=      5-min Rain = 0
KSLS 022157Z 34015G20KT 03/M06 A3023 RMK A01 T00331055  RH  052%=      5-min Rain = 0
KSLS 022158Z 33015G20KT 03/M06 A3023 RMK A01 T00331055  RH  053%=      5-min Rain = 0
KSLS 022159Z 34013G18KT 03/M05 A3023 RMK A01 T00331054  RH  053%=      5-min Rain = 0
KSLS 022200Z 33019G26KT 03/M05 A3023 RMK A01 T00331054  RH  053%=      5-min Rain = 0
KSLS 022201Z 33019G30KT 03/M06 A3023 RMK A01 T00331055  RH  052%=      5-min Rain = 0
KSLS 022202Z 33018G25KT 03/M06 A3023 RMK A01 T00331055  RH  053%=      5-min Rain = 0
KSLS 022203Z 34018G25KT 03/M06 A3023 RMK A01 T00331055  RH  053%=      5-min Rain = 0
KSLS 022204Z 33019G25KT 03/M05 A3023 RMK A01 T00321054  RH  053%=      5-min Rain = 0
KSLS 022205Z 33022G27KT 03/M05 A3023 RMK A01 T00321054  RH  053%=      5-min Rain = 0
KSLS 022206Z 34022KT 03/M05 A3023 RMK A01 T00321054  RH  053%=      5-min Rain = 0
KSLS 022207Z 34015G21KT 03/M05 A3023 RMK A01 T00321054  RH  053%=      5-min Rain = 0
KSLS 022208Z 34014G20KT 03/M05 A3023 RMK A01 T00321054  RH  054%=      5-min Rain = 0
KSLS 022209Z 33015G22KT 03/M05 A3023 RMK A01 T00321054  RH  053%=      5-min Rain = 0
KSLS 022210Z 33016G25KT 03/M05 A3023 RMK A01 T00321054  RH  053%=      5-min Rain = 0
KSLS 022211Z 33021G30KT 03/M05 A3023 RMK A01 T00321053  RH  054%=      5-min Rain = 0
KSLS 022212Z 33022G30KT 03/M05 A3023 RMK A01 T00321053  RH  054%=      5-min Rain = 0
KSLS 022213Z 34020G26KT 03/M05 A3023 RMK A01 T00311054  RH  054%=      5-min Rain = 0
KSLS 022214Z 34019G24KT 03/M05 A3023 RMK A01 T00311054  RH  054%=      5-min Rain = 0
KSLS 022215Z 33020KT 03/M05 A3023 RMK A01 T00311054  RH  054%=      5-min Rain = 0
KSLS 022216Z 34018G23KT 03/M05 A3023 RMK A01 T00311054  RH  054%=      5-min Rain = 0
KSLS 022217Z 33018G26KT 03/M06 A3023 RMK A01 T00301055  RH  054%=      5-min Rain = 0
KSLS 022218Z 34019G24KT 03/M06 A3023 RMK A01 T00301056  RH  053%=      5-min Rain = 0
KSLS 022219Z 34018G24KT 03/M06 A3023 RMK A01 T00301056  RH  053%=      5-min Rain = 0
KSLS 022220Z 34020G26KT 03/M06 A3023 RMK A01 T00301056  RH  053%=      5-min Rain = 0
KSLS 022221Z 33019G24KT 03/M06 A3023 RMK A01 T00301056  RH  053%=      5-min Rain = 0
KSLS 022222Z 33018G25KT 03/M06 A3023 RMK A01 T00301056  RH  053%=      5-min Rain = 0
KSLS 022223Z 34020G26KT 03/M06 A3023 RMK A01 T00301056  RH  053%=      5-min Rain = 0
KSLS 022224Z 34019G26KT 03/M06 A3023 RMK A01 T00301056  RH  053%=      5-min Rain = 0
KSLS 022225Z 34022KT 03/M06 A3023 RMK A01 T00301056  RH  053%=      5-min Rain = 0
KSLS 022226Z 34020G27KT 03/M06 A3023 RMK A01 T00301056  RH  053%=      5-min Rain = 0
KSLS 022227Z 34017G25KT 03/M06 A3023 RMK A01 T00301057  RH  053%=      5-min Rain = 0
KSLS 022228Z 34017G23KT 03/M06 A3023 RMK A01 T00301057  RH  053%=      5-min Rain = 0
KSLS 022229Z 34017G24KT 03/M06 A3023 RMK A01 T00301057  RH  053%=      5-min Rain = 0
KSLS 022230Z 34018G25KT 03/M06 A3023 RMK A01 T00301057  RH  053%=      5-min Rain = 0
KSLS 022231Z 34016G23KT 03/M06 A3023 RMK A01 T00301057  RH  053%=      5-min Rain = 0
KSLS 022232Z 34019G24KT 03/M06 A3023 RMK A01 T00301057  RH  053%=      5-min Rain = 0
KSLS 022233Z 33017G23KT 03/M06 A3023 RMK A01 T00301057  RH  053%=      5-min Rain = 0
KSLS 022234Z 33016KT 03/M06 A3023 RMK A01 T00301056  RH  053%=      5-min Rain = 0
KSLS 022235Z 33019G24KT 03/M06 A3023 RMK A01 T00301056  RH  053%=      5-min Rain = 0
KSLS 022236Z 33019KT 03/M06 A3023 RMK A01 T00301056  RH  053%=      5-min Rain = 0
KSLS 022237Z 33021G27KT 03/M06 A3023 RMK A01 T00291056  RH  053%=      5-min Rain = 0
KSLS 022238Z 33020G26KT 03/M06 A3023 RMK A01 T00291056  RH  054%=      5-min Rain = 0
KSLS 022239Z 33018G25KT 03/M06 A3023 RMK A01 T00281056  RH  054%=      5-min Rain = 0
KSLS 022240Z 33017G25KT 03/M06 A3023 RMK A01 T00281056  RH  054%=      5-min Rain = 0
KSLS 022241Z 33018G26KT 03/M06 A3023 RMK A01 T00281055  RH  054%=      5-min Rain = 0
KSLS 022242Z 33020G27KT 03/M06 A3023 RMK A01 T00281056  RH  054%=      5-min Rain = 0
KSLS 022243Z 34017G24KT 03/M06 A3023 RMK A01 T00281056  RH  054%=      5-min Rain = 0
KSLS 022244Z 33019G26KT 03/M06 A3023 RMK A01 T00281056  RH  054%=      5-min Rain = 0
KSLS 022245Z 33020G28KT 03/M06 A3023 RMK A01 T00281057  RH  053%=      5-min Rain = 0
KSLS 022246Z 33020G27KT 03/M06 A3023 RMK A01 T00281058  RH  053%=      5-min Rain = 0
KSLS 022247Z 33018G24KT 03/M06 A3023 RMK A01 T00281057  RH  053%=      5-min Rain = 0
KSLS 022248Z 33020G25KT 03/M06 A3023 RMK A01 T00281058  RH  053%=      5-min Rain = 0
KSLS 022249Z 34017G24KT 03/M06 A3023 RMK A01 T00281058  RH  053%=      5-min Rain = 0
KSLS 022250Z 34019KT 03/M06 A3023 RMK A01 T00281058  RH  053%=      5-min Rain = 0
KSLS 022251Z 33017G23KT 03/M06 A3023 RMK A01 T00281058  RH  053%=      5-min Rain = 0
KSLS 022252Z 33019KT 03/M06 A3023 RMK A01 T00281058  RH  053%=      5-min Rain = 0
KSLS 022253Z 34018G25KT 03/M06 A3024 RMK A01 T00281059  RH  053%=      5-min Rain = 0
KSLS 022254Z 34020G26KT 03/M06 A3023 RMK A01 T00281059  RH  053%=      5-min Rain = 0
KSLS 022255Z 35020G25KT 03/M06 A3024 RMK A01 T00281059  RH  053%=      5-min Rain = 0
KSLS 022256Z 34020G27KT 03/M06 A3024 RMK A01 T00271059  RH  053%=      5-min Rain = 0
KSLS 022257Z 35018G24KT 03/M06 A3024 RMK A01 T00271059  RH  053%=      5-min Rain = 0
KSLS 022258Z 33018G25KT 03/M06 A3024 RMK A01 T00271059  RH  053%=      5-min Rain = 0
KSLS 022259Z 33022G30KT 03/M06 A3024 RMK A01 T00271059  RH  053%=      5-min Rain = 0
KSLS 022300Z 34017G22KT 03/M06 A3024 RMK A01 T00271059  RH  053%=      5-min Rain = 0
KSLS 022301Z 34017G23KT 03/M06 A3024 RMK A01 T00271059  RH  053%=      5-min Rain = 0
KSLS 022302Z 34017G27KT 03/M06 A3024 RMK A01 T00271059  RH  053%=      5-min Rain = 0
KSLS 022303Z 34022G30KT 03/M06 A3024 RMK A01 T00271059  RH  053%=      5-min Rain = 0
KSLS 022304Z 35018G23KT 03/M06 A3024 RMK A01 T00271060  RH  053%=      5-min Rain = 0
KSLS 022305Z 35018KT 03/M06 A3024 RMK A01 T00261060  RH  053%=      5-min Rain = 0
KSLS 022306Z 34015G21KT 03/M06 A3024 RMK A01 T00261060  RH  053%=      5-min Rain = 0
KSLS 022307Z 34016G22KT 03/M06 A3024 RMK A01 T00261060  RH  053%=      5-min Rain = 0
KSLS 022308Z 35015G24KT 03/M06 A3024 RMK A01 T00261060  RH  053%=      5-min Rain = 0
KSLS 022309Z 35015G21KT 03/M06 A3024 RMK A01 T00261060  RH  053%=      5-min Rain = 0
KSLS 022310Z 34017G22KT 03/M06 A3024 RMK A01 T00261060  RH  053%=      5-min Rain = 0
KSLS 022311Z 34015G22KT 03/M06 A3025 RMK A01 T00261060  RH  053%=      5-min Rain = 0
KSLS 022312Z 34016G25KT 03/M06 A3024 RMK A01 T00261059  RH  053%=      5-min Rain = 0
KSLS 022313Z 34016G21KT 03/M06 A3024 RMK A01 T00261060  RH  053%=      5-min Rain = 0
KSLS 022314Z 35017G23KT 03/M06 A3024 RMK A01 T00261060  RH  053%=      5-min Rain = 0
KSLS 022315Z 35017G23KT 03/M06 A3024 RMK A01 T00261061  RH  053%=      5-min Rain = 0
KSLS 022316Z 34015G21KT 03/M06 A3024 RMK A01 T00261061  RH  053%=      5-min Rain = 0
KSLS 022317Z 34017G24KT 03/M06 A3024 RMK A01 T00261061  RH  053%=      5-min Rain = 0
KSLS 022318Z 34015G22KT 03/M06 A3024 RMK A01 T00261061  RH  053%=      5-min Rain = 0
KSLS 022319Z 34016G22KT 03/M06 A3024 RMK A01 T00261061  RH  053%=      5-min Rain = 0
KSLS 022320Z 34017G25KT 03/M06 A3025 RMK A01 T00261060  RH  053%=      5-min Rain = 0
KSLS 022321Z 34015G20KT 03/M06 A3025 RMK A01 T00261060  RH  053%=      5-min Rain = 0
KSLS 022322Z 35014G21KT 03/M06 A3025 RMK A01 T00261060  RH  053%=      5-min Rain = 0
KSLS 022323Z 34018G24KT 03/M06 A3025 RMK A01 T00261060  RH  053%=      5-min Rain = 0
KSLS 022324Z 34016G21KT 03/M06 A3025 RMK A01 T00261060  RH  053%=      5-min Rain = 0
KSLS 022325Z 34018G24KT 03/M06 A3025 RMK A01 T00251060  RH  054%=      5-min Rain = 0
KSLS 022326Z 34018G25KT 03/M06 A3025 RMK A01 T00251059  RH  054%=      5-min Rain = 0
KSLS 022327Z 34018G28KT 03/M06 A3025 RMK A01 T00251059  RH  054%=      5-min Rain = 0
KSLS 022328Z 34019G27KT 03/M06 A3025 RMK A01 T00251059  RH  054%=      5-min Rain = 0
KSLS 022329Z 34014G19KT 03/M06 A3025 RMK A01 T00251058  RH  054%=      5-min Rain = 0
KSLS 022330Z 34014G19KT 03/M06 A3025 RMK A01 T00251058  RH  054%=      5-min Rain = 0
KSLS 022331Z 34019G27KT 02/M06 A3025 RMK A01 T00241058  RH  055%=      5-min Rain = 0
KSLS 022332Z 33017G23KT 02/M06 A3025 RMK A01 T00241058  RH  055%=      5-min Rain = 0
KSLS 022333Z 34019G27KT 02/M06 A3025 RMK A01 T00241058  RH  055%=      5-min Rain = 0
KSLS 022334Z 34020KT 02/M06 A3025 RMK A01 T00241058  RH  055%=      5-min Rain = 0
KSLS 022335Z 34020G25KT 02/M06 A3026 RMK A01 T00241058  RH  055%=      5-min Rain = 0
KSLS 022336Z 34016G25KT 02/M06 A3026 RMK A01 T00231058  RH  055%=      5-min Rain = 0
KSLS 022337Z 34019G25KT 02/M06 A3026 RMK A01 T00231058  RH  055%=      5-min Rain = 0
KSLS 022338Z 33020G25KT 02/M06 A3026 RMK A01 T00231058  RH  055%=      5-min Rain = 0
KSLS 022339Z 33017G23KT 02/M06 A3026 RMK A01 T00231058  RH  055%=      5-min Rain = 0
KSLS 022340Z 33021G29KT 02/M06 A3026 RMK A01 T00231058  RH  055%=      5-min Rain = 0
KSLS 022341Z 33018G23KT 02/M06 A3026 RMK A01 T00231058  RH  055%=      5-min Rain = 0
KSLS 022342Z 33018KT 02/M06 A3026 RMK A01 T00231058  RH  055%=      5-min Rain = 0
KSLS 022343Z 34013G21KT 02/M06 A3026 RMK A01 T00231057  RH  055%=      5-min Rain = 0
KSLS 022344Z 34017G22KT 02/M06 A3026 RMK A01 T00221057  RH  056%=      5-min Rain = 0
KSLS 022345Z 34016G23KT 02/M06 A3026 RMK A01 T00221057  RH  056%=      5-min Rain = 0
KSLS 022346Z 34018G24KT 02/M06 A3026 RMK A01 T00221057  RH  056%=      5-min Rain = 0
KSLS 022347Z 34014G19KT 02/M06 A3026 RMK A01 T00221057  RH  056%=      5-min Rain = 0
KSLS 022348Z 33017G24KT 02/M06 A3026 RMK A01 T00221057  RH  056%=      5-min Rain = 0
KSLS 022349Z 33014G21KT 02/M06 A3026 RMK A01 T00221058  RH  055%=      5-min Rain = 0
KSLS 022350Z 34014G19KT 02/M06 A3026 RMK A01 T00221058  RH  055%=      5-min Rain = 0
KSLS 022351Z 33019KT 02/M06 A3026 RMK A01 T00221058  RH  055%=      5-min Rain = 0
KSLS 022352Z 34017G23KT 02/M06 A3026 RMK A01 T00221058  RH  055%=      5-min Rain = 0
KSLS 022353Z 34018G24KT 02/M06 A3026 RMK A01 T00221058  RH  055%=      5-min Rain = 0
KSLS 022354Z 34016G25KT 02/M06 A3026 RMK A01 T00221058  RH  055%=      5-min Rain = 0
KSLS 022355Z 33017G23KT 02/M06 A3026 RMK A01 T00221058  RH  055%=      5-min Rain = 0
KSLS 022356Z 34016G21KT 02/M06 A3026 RMK A01 T00221059  RH  055%=      5-min Rain = 0
KSLS 022357Z 34014G19KT 02/M06 A3026 RMK A01 T00221059  RH  055%=      5-min Rain = 0
KSLS 022358Z 34016G23KT 02/M06 A3026 RMK A01 T00221059  RH  055%=      5-min Rain = 0
KSLS 022359Z 34017G25KT 02/M06 A3026 RMK A01 T00221059  RH  055%=      5-min Rain = 0
KSLS 030000Z 34017G22KT 02/M06 A3026 RMK A01 T00221059  RH  055%=      5-min Rain = 0
KSLS 030001Z 33015G23KT 02/M06 A3027 RMK A01 T00221059  RH  055%=      5-min Rain = 0
KSLS 030002Z 33020G27KT 02/M06 A3026 RMK A01 T00221059  RH  055%=      5-min Rain = 0
KSLS 030003Z 34015G20KT 02/M06 A3027 RMK A01 T00221059  RH  055%=      5-min Rain = 0
KSLS 030004Z 34019G24KT 02/M06 A3027 RMK A01 T00221059  RH  055%=      5-min Rain = 0
KSLS 030005Z 33022G27KT 02/M06 A3027 RMK A01 T00221059  RH  055%=      5-min Rain = 0
KSLS 030006Z 34019G24KT 02/M06 A3027 RMK A01 T00221060  RH  055%=      5-min Rain = 0
KSLS 030007Z 34014G20KT 02/M06 A3027 RMK A01 T00221060  RH  055%=      5-min Rain = 0
KSLS 030008Z 34017G22KT 02/M06 A3027 RMK A01 T00221059  RH  055%=      5-min Rain = 0
KSLS 030009Z 33015G21KT 02/M06 A3027 RMK A01 T00221059  RH  055%=      5-min Rain = 0
KSLS 030010Z 34017KT 02/M06 A3027 RMK A01 T00221059  RH  055%=      5-min Rain = 0
KSLS 030011Z 34017G22KT 02/M06 A3027 RMK A01 T00221059  RH  055%=      5-min Rain = 0
KSLS 030012Z 33016KT 02/M06 A3027 RMK A01 T00221059  RH  055%=      5-min Rain = 0
KSLS 030013Z 33018G24KT 02/M06 A3027 RMK A01 T00211060  RH  055%=      5-min Rain = 0
KSLS 030014Z 34016G21KT 02/M06 A3027 RMK A01 T00211060  RH  055%=      5-min Rain = 0
KSLS 030015Z 33016G25KT 02/M06 A3027 RMK A01 T00211060  RH  055%=      5-min Rain = 0
KSLS 030016Z 34017KT 02/M06 A3027 RMK A01 T00211061  RH  055%=      5-min Rain = 0
KSLS 030017Z 34017G24KT 02/M06 A3027 RMK A01 T00211061  RH  055%=      5-min Rain = 0
KSLS 030018Z 33020G25KT 02/M06 A3027 RMK A01 T00211061  RH  054%=      5-min Rain = 0
KSLS 030019Z 33016G24KT 02/M06 A3027 RMK A01 T00211061  RH  054%=      5-min Rain = 0
KSLS 030020Z 34019G24KT 02/M06 A3027 RMK A01 T00211061  RH  054%=      5-min Rain = 0
KSLS 030021Z 34015KT 02/M06 A3027 RMK A01 T00211061  RH  054%=      5-min Rain = 0
KSLS 030022Z 35016G24KT 02/M06 A3027 RMK A01 T00211061  RH  054%=      5-min Rain = 0
KSLS 030023Z 34019G27KT 02/M06 A3027 RMK A01 T00211061  RH  054%=      5-min Rain = 0
KSLS 030024Z 34019G25KT 02/M06 A3027 RMK A01 T00211062  RH  054%=      5-min Rain = 0
KSLS 030025Z 34019G27KT 02/M06 A3027 RMK A01 T00211062  RH  054%=      5-min Rain = 0
KSLS 030026Z 33020G26KT 02/M06 A3027 RMK A01 T00211062  RH  054%=      5-min Rain = 0
KSLS 030027Z 34020G25KT 02/M06 A3027 RMK A01 T00211063  RH  054%=      5-min Rain = 0
KSLS 030028Z 34017G27KT 02/M06 A3028 RMK A01 T00211063  RH  054%=      5-min Rain = 0
KSLS 030029Z 34016G25KT 02/M06 A3028 RMK A01 T00211062  RH  054%=      5-min Rain = 0
KSLS 030030Z 34018G25KT 02/M06 A3028 RMK A01 T00211062  RH  054%=      5-min Rain = 0
KSLS 030031Z 34020G25KT 02/M06 A3028 RMK A01 T00211062  RH  054%=      5-min Rain = 0
KSLS 030032Z 34018KT 02/M06 A3028 RMK A01 T00211062  RH  054%=      5-min Rain = 0
KSLS 030033Z 34017G22KT 02/M06 A3028 RMK A01 T00211062  RH  054%=      5-min Rain = 0
KSLS 030034Z 34017G22KT 02/M06 A3028 RMK A01 T00211062  RH  054%=      5-min Rain = 0
KSLS 030035Z 34018G27KT 02/M06 A3028 RMK A01 T00211062  RH  055%=      5-min Rain = 0
KSLS 030036Z 35018G25KT 02/M06 A3028 RMK A01 T00201062  RH  055%=      5-min Rain = 0
KSLS 030037Z 34018G25KT 02/M06 A3028 RMK A01 T00201062  RH  054%=      5-min Rain = 0
KSLS 030038Z 35017G25KT 02/M06 A3028 RMK A01 T00201062  RH  054%=      5-min Rain = 0
KSLS 030039Z 35018G23KT 02/M06 A3028 RMK A01 T00201062  RH  054%=      5-min Rain = 0
KSLS 030040Z 35019G25KT 02/M06 A3028 RMK A01 T00201063  RH  054%=      5-min Rain = 0
KSLS 030041Z 35019G24KT 02/M06 A3028 RMK A01 T00201063  RH  054%=      5-min Rain = 0
KSLS 030042Z 34015G20KT 02/M06 A3028 RMK A01 T00201063  RH  054%=      5-min Rain = 0
KSLS 030043Z 35013KT 02/M06 A3028 RMK A01 T00191063  RH  055%=      5-min Rain = 0
KSLS 030044Z 34015G24KT 02/M06 A3028 RMK A01 T00191063  RH  055%=      5-min Rain = 0
KSLS 030045Z 35017G22KT 02/M06 A3028 RMK A01 T00191063  RH  055%=      5-min Rain = 0
KSLS 030046Z 35016G23KT 02/M06 A3028 RMK A01 T00191063  RH  055%=      5-min Rain = 0
KSLS 030047Z 35016G21KT 02/M06 A3028 RMK A01 T00191063  RH  055%=      5-min Rain = 0
KSLS 030048Z 35018G23KT 02/M06 A3028 RMK A01 T00191063  RH  055%=      5-min Rain = 0
KSLS 030049Z 35015G20KT 02/M06 A3028 RMK A01 T00191063  RH  055%=      5-min Rain = 0
KSLS 030050Z 34015G20KT 02/M06 A3028 RMK A01 T00181063  RH  055%=      5-min Rain = 0
KSLS 030051Z 34017G25KT 02/M06 A3028 RMK A01 T00181063  RH  055%=      5-min Rain = 0
KSLS 030052Z 35016G26KT 02/M06 A3028 RMK A01 T00181063  RH  055%=      5-min Rain = 0
KSLS 030053Z 35020G27KT 02/M06 A3028 RMK A01 T00181063  RH  055%=      5-min Rain = 0
KSLS 030054Z 35017G22KT 02/M06 A3028 RMK A01 T00181063  RH  055%=      5-min Rain = 0
KSLS 030055Z 35015G21KT 02/M06 A3028 RMK A01 T00181063  RH  055%=      5-min Rain = 0
KSLS 030056Z 35016G22KT 02/M06 A3028 RMK A01 T00171063  RH  055%=      5-min Rain = 0
KSLS 030057Z 35017G23KT 02/M06 A3028 RMK A01 T00171063  RH  055%=      5-min Rain = 0
KSLS 030058Z 35017G22KT 02/M06 A3028 RMK A01 T00171064  RH  055%=      5-min Rain = 0
KSLS 030059Z 34014G20KT 02/M06 A3028 RMK A01 T00171064  RH  055%=      5-min Rain = 0
KSLS 030100Z 35012G21KT 02/M06 A3028 RMK A01 T00171064  RH  055%=      5-min Rain = 0
KSLS 030101Z 34015G22KT 02/M06 A3028 RMK A01 T00161064  RH  055%=      5-min Rain = 0
KSLS 030102Z 34013G18KT 02/M06 A3028 RMK A01 T00161064  RH  055%=      5-min Rain = 0
KSLS 030103Z 35014G21KT 02/M06 A3028 RMK A01 T00151064  RH  055%=      5-min Rain = 0
KSLS 030104Z 34012G17KT 02/M06 A3028 RMK A01 T00151064  RH  056%=      5-min Rain = 0
KSLS 030105Z 34014KT 01/M07 A3028 RMK A01 T00141065  RH  056%=      5-min Rain = 0
KSLS 030106Z 34015G22KT 01/M06 A3028 RMK A01 T00141064  RH  056%=      5-min Rain = 0
KSLS 030107Z 34015KT 01/M07 A3028 RMK A01 T00131065  RH  056%=      5-min Rain = 0
KSLS 030108Z 34015G21KT 01/M07 A3028 RMK A01 T00131065  RH  056%=      5-min Rain = 0
KSLS 030109Z 34016KT 01/M07 A3028 RMK A01 T00131065  RH  056%=      5-min Rain = 0
KSLS 030110Z 34015KT 01/M07 A3028 RMK A01 T00131065  RH  056%=      5-min Rain = 0
KSLS 030111Z 34014G20KT 01/M07 A3029 RMK A01 T00131065  RH  056%=      5-min Rain = 0
KSLS 030112Z 33017G22KT 01/M07 A3028 RMK A01 T00121065  RH  056%=      5-min Rain = 0
KSLS 030113Z 33018G24KT 01/M07 A3029 RMK A01 T00121066  RH  056%=      5-min Rain = 0
KSLS 030114Z 34017G26KT 01/M07 A3029 RMK A01 T00121066  RH  056%=      5-min Rain = 0
KSLS 030115Z 34021G30KT 01/M07 A3029 RMK A01 T00121067  RH  056%=      5-min Rain = 0
KSLS 030116Z 34015G21KT 01/M07 A3029 RMK A01 T00121067  RH  055%=      5-min Rain = 0
KSLS 030117Z 34017G25KT 01/M07 A3029 RMK A01 T00121067  RH  055%=      5-min Rain = 0
KSLS 030118Z 34018G25KT 01/M07 A3029 RMK A01 T00121068  RH  055%=      5-min Rain = 0
KSLS 030119Z 34019G25KT 01/M07 A3029 RMK A01 T00121068  RH  055%=      5-min Rain = 0
KSLS 030120Z 34016G21KT 01/M07 A3029 RMK A01 T00121067  RH  056%=      5-min Rain = 0
KSLS 030121Z 34013G21KT 01/M07 A3029 RMK A01 T00111067  RH  056%=      5-min Rain = 0
KSLS 030122Z 34012KT 01/M07 A3029 RMK A01 T00101067  RH  056%=      5-min Rain = 0
KSLS 030123Z 33016G21KT 01/M07 A3029 RMK A01 T00101067  RH  056%=      5-min Rain = 0
KSLS 030124Z 34015G21KT 01/M07 A3029 RMK A01 T00101067  RH  057%=      5-min Rain = 0
KSLS 030125Z 34014G23KT 01/M07 A3029 RMK A01 T00091067  RH  057%=      5-min Rain = 0
KSLS 030126Z 34014G19KT 01/M07 A3029 RMK A01 T00101067  RH  057%=      5-min Rain = 0
KSLS 030127Z 34016G22KT 01/M07 A3029 RMK A01 T00091067  RH  057%=      5-min Rain = 0
KSLS 030128Z 34015G21KT 01/M07 A3029 RMK A01 T00091067  RH  057%=      5-min Rain = 0
KSLS 030129Z 34014G19KT 01/M07 A3029 RMK A01 T00091066  RH  057%=      5-min Rain = 0
KSLS 030130Z 34013KT 01/M07 A3029 RMK A01 T00091067  RH  057%=      5-min Rain = 0
KSLS 030131Z 33014G20KT 01/M07 A303 RMK A01 T00081067  RH  057%=      5-min Rain = 0
KSLS 030132Z 33013KT 01/M07 A303 RMK A01 T00081067  RH  058%=      5-min Rain = 0
KSLS 030133Z 33016G22KT 01/M07 A303 RMK A01 T00071067  RH  058%=      5-min Rain = 0
KSLS 030134Z 33015KT 01/M07 A303 RMK A01 T00071066  RH  058%=      5-min Rain = 0
KSLS 030135Z 33013G18KT 01/M07 A303 RMK A01 T00071067  RH  058%=      5-min Rain = 0
KSLS 030136Z 33016G23KT 01/M07 A303 RMK A01 T00061067  RH  058%=      5-min Rain = 0
KSLS 030137Z 33014G19KT 01/M07 A303 RMK A01 T00061067  RH  058%=      5-min Rain = 0
KSLS 030138Z 33018G24KT 01/M07 A303 RMK A01 T00061067  RH  058%=      5-min Rain = 0
KSLS 030139Z 33017G25KT 01/M07 A303 RMK A01 T00061067  RH  058%=      5-min Rain = 0
KSLS 030140Z 33015KT 01/M07 A303 RMK A01 T00061068  RH  058%=      5-min Rain = 0
KSLS 030141Z 33013G19KT 01/M07 A303 RMK A01 T00061068  RH  058%=      5-min Rain = 0
KSLS 030142Z 33016G21KT 01/M07 A303 RMK A01 T00061068  RH  058%=      5-min Rain = 0
KSLS 030143Z 33013G19KT 01/M07 A303 RMK A01 T00051068  RH  058%=      5-min Rain = 0
KSLS 030144Z 33012G18KT 01/M07 A303 RMK A01 T00051068  RH  058%=      5-min Rain = 0
KSLS 030145Z 33012G20KT 00/M07 A303 RMK A01 T00041068  RH  058%=      5-min Rain = 0
KSLS 030146Z 33016G22KT 00/M07 A303 RMK A01 T00041068  RH  059%=      5-min Rain = 0
KSLS 030147Z 33014G20KT 00/M07 A303 RMK A01 T00041067  RH  059%=      5-min Rain = 0
KSLS 030148Z 33016KT 00/M07 A303 RMK A01 T00041067  RH  059%=      5-min Rain = 0
KSLS 030149Z 33014G21KT 00/M07 A303 RMK A01 T00041067  RH  059%=      5-min Rain = 0
KSLS 030150Z 33014G19KT 00/M07 A303 RMK A01 T00041067  RH  059%=      5-min Rain = 0
KSLS 030151Z 33013G20KT 00/M07 A303 RMK A01 T00031067  RH  059%=      5-min Rain = 0
KSLS 030152Z 32013G19KT 00/M07 A303 RMK A01 T00021067  RH  059%=      5-min Rain = 0
KSLS 030153Z 33016G21KT 00/M07 A303 RMK A01 T00021067  RH  060%=      5-min Rain = 0
KSLS 030154Z 33016G21KT 00/M07 A303 RMK A01 T00021067  RH  060%=      5-min Rain = 0
KSLS 030155Z 33017G24KT 00/M07 A303 RMK A01 T00031067  RH  060%=      5-min Rain = 0
KSLS 030156Z 33015KT 00/M07 A303 RMK A01 T00031066  RH  060%=      5-min Rain = 0
KSLS 030157Z 33012KT 00/M07 A303 RMK A01 T00031066  RH  060%=      5-min Rain = 0
KSLS 030158Z 34015G20KT 00/M07 A303 RMK A01 T00021066  RH  060%=      5-min Rain = 0
KSLS 030159Z 33013G19KT 00/M07 A303 RMK A01 T00021066  RH  060%=      5-min Rain = 0
KSLS 030200Z 33014G19KT 00/M07 A3031 RMK A01 T00021066  RH  060%=      5-min Rain = 0
KSLS 030201Z 33015G21KT 00/M07 A3031 RMK A01 T00021066  RH  061%=      5-min Rain = 0
KSLS 030202Z 33012G17KT 00/M07 A3031 RMK A01 T00011066  RH  061%=      5-min Rain = 0
KSLS 030203Z 33014G21KT 00/07 A3031 RMK A01 T00000-66  RH  061%=      5-min Rain = 0
KSLS 030204Z 33015G20KT 00/07 A3031 RMK A01 T00-00-65  RH  061%=      5-min Rain = 0
KSLS 030205Z 33013KT 00/07 A3031 RMK A01 T00-00-65  RH  062%=      5-min Rain = 0
KSLS 030206Z 33014G19KT 00/07 A3031 RMK A01 T00-00-65  RH  062%=      5-min Rain = 0
KSLS 030207Z 33014G20KT 00/07 A3031 RMK A01 T00-00-65  RH  062%=      5-min Rain = 0
KSLS 030208Z 33012G17KT 00/07 A3031 RMK A01 T00-00-65  RH  062%=      5-min Rain = 0
KSLS 030209Z 33013G20KT 00/07 A3031 RMK A01 T00-00-65  RH  062%=      5-min Rain = 0
KSLS 030210Z 33014G20KT M00/M07 A3031 RMK A01 T10011065  RH  062%=      5-min Rain = 0
KSLS 030211Z 33014KT M00/M07 A3031 RMK A01 T10011065  RH  062%=      5-min Rain = 0
KSLS 030212Z 33014G20KT M00/M06 A3031 RMK A01 T10011064  RH  062%=      5-min Rain = 0
KSLS 030213Z 33017G23KT M00/M06 A3031 RMK A01 T10011064  RH  062%=      5-min Rain = 0
KSLS 030214Z 33013G22KT M00/M06 A3031 RMK A01 T10011064  RH  062%=      5-min Rain = 0
KSLS 030215Z 33015KT M00/M06 A3031 RMK A01 T10011064  RH  062%=      5-min Rain = 0
KSLS 030216Z 34014G19KT M00/M06 A3031 RMK A01 T10011064  RH  063%=      5-min Rain = 0
KSLS 030217Z 33015G22KT M00/M06 A3031 RMK A01 T10021064  RH  063%=      5-min Rain = 0
KSLS 030218Z 33017G23KT M00/M06 A3031 RMK A01 T10021064  RH  063%=      5-min Rain = 0
KSLS 030219Z 33014G19KT M00/M06 A3031 RMK A01 T10011064  RH  063%=      5-min Rain = 0
KSLS 030220Z 33015G20KT M00/M06 A303 RMK A01 T10021064  RH  063%=      5-min Rain = 0
KSLS 030221Z 33015KT M00/M06 A303 RMK A01 T10021064  RH  063%=      5-min Rain = 0
KSLS 030222Z 33013KT M00/M06 A303 RMK A01 T10021063  RH  063%=      5-min Rain = 0
KSLS 030223Z 33013G18KT M00/M06 A303 RMK A01 T10021064  RH  063%=      5-min Rain = 0
KSLS 030224Z 33012KT M00/M06 A3031 RMK A01 T10031064  RH  063%=      5-min Rain = 0
KSLS 030225Z 33013KT M00/M06 A3031 RMK A01 T10031064  RH  063%=      5-min Rain = 0
KSLS 030226Z 32010KT M00/M06 A3031 RMK A01 T10041064  RH  064%=      5-min Rain = 0
KSLS 030227Z 33011G17KT M00/M07 A3031 RMK A01 T10041065  RH  064%=      5-min Rain = 0
KSLS 030228Z 33011KT M01/M07 A303 RMK A01 T10051065  RH  064%=      5-min Rain = 0
KSLS 030229Z 32014G19KT M01/M07 A303 RMK A01 T10051065  RH  064%=      5-min Rain = 0
KSLS 030230Z 32014G20KT M01/M07 A303 RMK A01 T10051065  RH  064%=      5-min Rain = 0
KSLS 030231Z 32015G21KT M01/M06 A303 RMK A01 T10051064  RH  064%=      5-min Rain = 0
KSLS 030232Z 33017G24KT M01/M06 A303 RMK A01 T10051064  RH  064%=      5-min Rain = 0
KSLS 030233Z 33015G22KT M00/M06 A303 RMK A01 T10041064  RH  064%=      5-min Rain = 0
KSLS 030234Z 33015KT M00/M06 A303 RMK A01 T10041064  RH  064%=      5-min Rain = 0
KSLS 030235Z 33016G24KT M00/M06 A303 RMK A01 T10041063  RH  064%=      5-min Rain = 0
KSLS 030236Z 33014G20KT M00/M06 A303 RMK A01 T10041063  RH  064%=      5-min Rain = 0
KSLS 030237Z 33016G23KT M00/M06 A303 RMK A01 T10041063  RH  065%=      5-min Rain = 0
KSLS 030238Z 33014KT M00/M06 A303 RMK A01 T10041063  RH  065%=      5-min Rain = 0
KSLS 030239Z 32014G19KT M00/M06 A3031 RMK A01 T10041063  RH  065%=      5-min Rain = 0
KSLS 030240Z 32014KT M00/M06 A3031 RMK A01 T10041063  RH  065%=      5-min Rain = 0
KSLS 030241Z 32012KT M01/M06 A3031 RMK A01 T10051063  RH  065%=      5-min Rain = 0
KSLS 030242Z 32014G19KT M01/M06 A303 RMK A01 T10051063  RH  065%=      5-min Rain = 0
KSLS 030243Z 33014G22KT M01/M06 A303 RMK A01 T10051063  RH  065%=      5-min Rain = 0
KSLS 030244Z 33015KT M01/M06 A303 RMK A01 T10051063  RH  065%=      5-min Rain = 0
KSLS 030245Z 32012G20KT M01/M06 A3031 RMK A01 T10051063  RH  065%=      5-min Rain = 0
KSLS 030246Z 32014G20KT M01/M06 A3031 RMK A01 T10051063  RH  065%=      5-min Rain = 0
KSLS 030247Z 32012G18KT M01/M06 A3031 RMK A01 T10051063  RH  065%=      5-min Rain = 0
KSLS 030248Z 32012G19KT M01/M06 A3031 RMK A01 T10061063  RH  065%=      5-min Rain = 0
KSLS 030249Z 32013G18KT M01/M06 A3031 RMK A01 T10061063  RH  065%=      5-min Rain = 0
KSLS 030250Z 32012G17KT M01/M06 A3031 RMK A01 T10061063  RH  065%=      5-min Rain = 0
KSLS 030251Z 33013G18KT M01/M06 A3031 RMK A01 T10061063  RH  066%=      5-min Rain = 0
KSLS 030252Z 32011G17KT M01/M06 A3031 RMK A01 T10061063  RH  066%=      5-min Rain = 0
KSLS 030253Z 32012KT M01/M06 A3031 RMK A01 T10071063  RH  066%=      5-min Rain = 0
KSLS 030254Z 32011G17KT M01/M06 A3031 RMK A01 T10071062  RH  066%=      5-min Rain = 0
KSLS 030255Z 32014KT M01/M06 A303 RMK A01 T10071063  RH  066%=      5-min Rain = 0
KSLS 030256Z 32013G18KT M01/M06 A303 RMK A01 T10071062  RH  066%=      5-min Rain = 0
KSLS 030257Z 33011G16KT M01/M06 A303 RMK A01 T10061062  RH  066%=      5-min Rain = 0
KSLS 030258Z 33011G16KT M01/M06 A303 RMK A01 T10061062  RH  066%=      5-min Rain = 0
KSLS 030259Z 32013G19KT M01/M06 A303 RMK A01 T10071062  RH  066%=      5-min Rain = 0
KSLS 030300Z 32013G18KT M01/M06 A303 RMK A01 T10071062  RH  066%=      5-min Rain = 0
KSLS 030301Z 32013KT M01/M06 A303 RMK A01 T10071062  RH  066%=      5-min Rain = 0
KSLS 030302Z 32013G19KT M01/M06 A303 RMK A01 T10071062  RH  066%=      5-min Rain = 0
KSLS 030303Z 32013G19KT M01/M06 A303 RMK A01 T10071062  RH  066%=      5-min Rain = 0
KSLS 030304Z 32013G20KT M01/M06 A303 RMK A01 T10071062  RH  066%=      5-min Rain = 0
KSLS 030305Z 32015KT M01/M06 A303 RMK A01 T10071062  RH  066%=      5-min Rain = 0
KSLS 030306Z 33013G23KT M01/M06 A303 RMK A01 T10071062  RH  066%=      5-min Rain = 0
KSLS 030307Z 33015G23KT M01/M06 A303 RMK A01 T10061062  RH  066%=      5-min Rain = 0
KSLS 030308Z 32016G22KT M01/M06 A303 RMK A01 T10061062  RH  066%=      5-min Rain = 0
KSLS 030309Z 33015G23KT M01/M06 A303 RMK A01 T10071062  RH  066%=      5-min Rain = 0
KSLS 030310Z 33017G24KT M01/M06 A303 RMK A01 T10061062  RH  066%=      5-min Rain = 0
KSLS 030311Z 33015G22KT M01/M06 A303 RMK A01 T10061062  RH  066%=      5-min Rain = 0
KSLS 030312Z 32015G20KT M01/M06 A303 RMK A01 T10061062  RH  066%=      5-min Rain = 0
KSLS 030313Z 33016G22KT M01/M06 A303 RMK A01 T10061062  RH  066%=      5-min Rain = 0
KSLS 030314Z 33015G21KT M01/M06 A303 RMK A01 T10071062  RH  066%=      5-min Rain = 0
KSLS 030315Z 32014G21KT M01/M06 A303 RMK A01 T10071061  RH  066%=      5-min Rain = 0
KSLS 030316Z 32016G22KT M01/M06 A303 RMK A01 T10071061  RH  067%=      5-min Rain = 0
KSLS 030317Z 33014G21KT M01/M06 A303 RMK A01 T10071061  RH  067%=      5-min Rain = 0
KSLS 030318Z 33013G19KT M01/M06 A303 RMK A01 T10071062  RH  067%=      5-min Rain = 0
KSLS 030319Z 33014KT M01/M06 A303 RMK A01 T10071062  RH  067%=      5-min Rain = 0
KSLS 030320Z 33016G23KT M01/M06 A303 RMK A01 T10071062  RH  067%=      5-min Rain = 0
KSLS 030321Z 32014KT M01/M06 A303 RMK A01 T10071062  RH  067%=      5-min Rain = 0
KSLS 030322Z 33012G17KT M01/M06 A303 RMK A01 T10071062  RH  067%=      5-min Rain = 0
KSLS 030323Z 32013G21KT M01/M06 A303 RMK A01 T10081062  RH  067%=      5-min Rain = 0
KSLS 030324Z 33013G19KT M01/M06 A303 RMK A01 T10081062  RH  067%=      5-min Rain = 0
KSLS 030325Z 32014KT M01/M06 A303 RMK A01 T10081062  RH  067%=      5-min Rain = 0
KSLS 030326Z 32012G18KT M01/M06 A303 RMK A01 T10081062  RH  067%=      5-min Rain = 0
KSLS 030327Z 32016G22KT M01/M06 A303 RMK A01 T10081062  RH  067%=      5-min Rain = 0
KSLS 030328Z 32014KT M01/M06 A303 RMK A01 T10081062  RH  067%=      5-min Rain = 0
KSLS 030329Z 33015G23KT M01/M06 A303 RMK A01 T10081062  RH  067%=      5-min Rain = 0
KSLS 030330Z 32013G22KT M01/M06 A303 RMK A01 T10081062  RH  067%=      5-min Rain = 0
KSLS 030331Z 32015G22KT M01/M06 A303 RMK A01 T10081062  RH  067%=      5-min Rain = 0
KSLS 030332Z 32014KT M01/M06 A303 RMK A01 T10081061  RH  067%=      5-min Rain = 0
KSLS 030333Z 32014KT M01/M06 A303 RMK A01 T10081061  RH  067%=      5-min Rain = 0
KSLS 030334Z 32015G20KT M01/M06 A303 RMK A01 T10081061  RH  067%=      5-min Rain = 0
KSLS 030335Z 32013G21KT M01/M06 A303 RMK A01 T10081061  RH  067%=      5-min Rain = 0
KSLS 030336Z 32015G22KT M01/M06 A303 RMK A01 T10081060  RH  068%=      5-min Rain = 0
KSLS 030337Z 32014G20KT M01/M06 A303 RMK A01 T10081060  RH  068%=      5-min Rain = 0
KSLS 030338Z 32010G15KT M01/M06 A303 RMK A01 T10081060  RH  068%=      5-min Rain = 0
KSLS 030339Z 32010G15KT M01/M06 A303 RMK A01 T10081060  RH  068%=      5-min Rain = 0
KSLS 030340Z 32014G19KT M01/M06 A303 RMK A01 T10091060  RH  068%=      5-min Rain = 0
KSLS 030341Z 32012G19KT M01/M06 A303 RMK A01 T10091060  RH  069%=      5-min Rain = 0
KSLS 030342Z 32014KT M01/M06 A303 RMK A01 T10091060  RH  069%=      5-min Rain = 0
KSLS 030343Z 32013G20KT M01/M06 A303 RMK A01 T10091059  RH  069%=      5-min Rain = 0
KSLS 030344Z 32015G20KT M01/M06 A303 RMK A01 T10091059  RH  069%=      5-min Rain = 0
KSLS 030345Z 32014G21KT M01/M06 A303 RMK A01 T10091059  RH  069%=      5-min Rain = 0
KSLS 030346Z 32014G21KT M01/M06 A303 RMK A01 T10091059  RH  069%=      5-min Rain = 0
KSLS 030347Z 31014KT M01/M06 A303 RMK A01 T10091059  RH  069%=      5-min Rain = 0
KSLS 030348Z 32013G19KT M01/M06 A303 RMK A01 T10091059  RH  069%=      5-min Rain = 0
KSLS 030349Z 32012G18KT M01/M06 A303 RMK A01 T10091059  RH  069%=      5-min Rain = 0
KSLS 030350Z 32017KT M01/M06 A303 RMK A01 T10091059  RH  069%=      5-min Rain = 0
KSLS 030351Z 32014G20KT M01/M06 A303 RMK A01 T10091059  RH  069%=      5-min Rain = 0
KSLS 030352Z 32014G19KT M01/M06 A303 RMK A01 T10091059  RH  069%=      5-min Rain = 0
KSLS 030353Z 32017G22KT M01/M06 A303 RMK A01 T10091059  RH  069%=      5-min Rain = 0
KSLS 030354Z 32014KT M01/M06 A303 RMK A01 T10091059  RH  069%=      5-min Rain = 0
KSLS 030355Z 32014G19KT M01/M06 A303 RMK A01 T10091059  RH  069%=      5-min Rain = 0
KSLS 030356Z 32012G18KT M01/M06 A303 RMK A01 T10091059  RH  069%=      5-min Rain = 0
KSLS 030357Z 32013G18KT M01/M06 A303 RMK A01 T10101059  RH  069%=      5-min Rain = 0
KSLS 030358Z 32011G19KT M01/M06 A303 RMK A01 T10101059  RH  069%=      5-min Rain = 0
KSLS 030359Z 32013G20KT M01/M06 A303 RMK A01 T10111060  RH  069%=      5-min Rain = 0
KSLS 030400Z 32011G17KT M01/M06 A303 RMK A01 T10101059  RH  070%=      5-min Rain = 0
KSLS 030401Z 32012G21KT M01/M06 A303 RMK A01 T10101059  RH  069%=      5-min Rain = 0
KSLS 030402Z 32015G21KT M01/M06 A303 RMK A01 T10111059  RH  070%=      5-min Rain = 0
KSLS 030403Z 32013G21KT M01/M06 A303 RMK A01 T10101059  RH  070%=      5-min Rain = 0
KSLS 030404Z 32014KT M01/M06 A303 RMK A01 T10101059  RH  070%=      5-min Rain = 0
KSLS 030405Z 32017G22KT M01/M06 A303 RMK A01 T10101058  RH  070%=      5-min Rain = 0
KSLS 030406Z 32014G22KT M01/M06 A303 RMK A01 T10091058  RH  069%=      5-min Rain = 0
KSLS 030407Z 32015KT M01/M06 A303 RMK A01 T10091058  RH  069%=      5-min Rain = 0
KSLS 030408Z 32014KT M01/M06 A303 RMK A01 T10091058  RH  069%=      5-min Rain = 0
KSLS 030409Z 32012G20KT M01/M06 A303 RMK A01 T10091058  RH  069%=      5-min Rain = 0
KSLS 030410Z 32014G19KT M01/M06 A303 RMK A01 T10101058  RH  070%=      5-min Rain = 0
KSLS 030411Z 31011G18KT M01/M06 A303 RMK A01 T10101058  RH  070%=      5-min Rain = 0
KSLS 030412Z 31012G18KT M01/M06 A303 RMK A01 T10101058  RH  070%=      5-min Rain = 0
KSLS 030413Z 31013G20KT M01/M06 A303 RMK A01 T10111058  RH  070%=      5-min Rain = 0
KSLS 030414Z 31016G22KT M01/M06 A303 RMK A01 T10111058  RH  070%=      5-min Rain = 0
KSLS 030415Z 32014G21KT M01/M06 A303 RMK A01 T10111058  RH  070%=      5-min Rain = 0
KSLS 030416Z 32013KT M01/M06 A303 RMK A01 T10111058  RH  070%=      5-min Rain = 0
KSLS 030417Z 32013G18KT M01/M06 A303 RMK A01 T10111058  RH  070%=      5-min Rain = 0
KSLS 030418Z 32016G22KT M01/M06 A303 RMK A01 T10111058  RH  070%=      5-min Rain = 0
KSLS 030419Z 31013G21KT M01/M06 A303 RMK A01 T10111058  RH  070%=      5-min Rain = 0
KSLS 030420Z 32013G18KT M01/M06 A303 RMK A01 T10111058  RH  070%=      5-min Rain = 0
KSLS 030421Z 32014G21KT M01/M06 A303 RMK A01 T10111058  RH  070%=      5-min Rain = 0
KSLS 030422Z 32015KT M01/M06 A303 RMK A01 T10111057  RH  071%=      5-min Rain = 0
KSLS 030423Z 31017G23KT M01/M06 A303 RMK A01 T10111057  RH  071%=      5-min Rain = 0
KSLS 030424Z 32014G19KT M01/M06 A303 RMK A01 T10101057  RH  071%=      5-min Rain = 0
KSLS 030425Z 31012KT M01/M06 A303 RMK A01 T10101057  RH  070%=      5-min Rain = 0
KSLS 030426Z 31014G24KT M01/M06 A303 RMK A01 T10101057  RH  070%=      5-min Rain = 0
KSLS 030427Z 31014KT M01/M06 A303 RMK A01 T10111057  RH  071%=      5-min Rain = 0
KSLS 030428Z 31011G18KT M01/M06 A303 RMK A01 T10111058  RH  071%=      5-min Rain = 0
KSLS 030429Z 32013G18KT M01/M06 A303 RMK A01 T10121058  RH  071%=      5-min Rain = 0
KSLS 030430Z 31013KT M01/M06 A303 RMK A01 T10121058  RH  071%=      5-min Rain = 0
KSLS 030431Z 31014KT M01/M06 A303 RMK A01 T10121058  RH  071%=      5-min Rain = 0
KSLS 030432Z 31014G20KT M01/M06 A303 RMK A01 T10121058  RH  071%=      5-min Rain = 0
KSLS 030433Z 31011KT M01/M06 A303 RMK A01 T10121057  RH  071%=      5-min Rain = 0
KSLS 030434Z 31013KT M01/M06 A303 RMK A01 T10121057  RH  071%=      5-min Rain = 0
KSLS 030435Z 31011KT M01/M06 A303 RMK A01 T10121057  RH  072%=      5-min Rain = 0
KSLS 030436Z 31013KT M01/M06 A303 RMK A01 T10131057  RH  072%=      5-min Rain = 0
KSLS 030437Z 31014KT M01/M06 A303 RMK A01 T10131057  RH  072%=      5-min Rain = 0
KSLS 030438Z 31012G17KT M01/M06 A303 RMK A01 T10131057  RH  072%=      5-min Rain = 0
KSLS 030439Z 31012G18KT M01/M06 A303 RMK A01 T10131057  RH  072%=      5-min Rain = 0
KSLS 030440Z 31011KT M01/M06 A303 RMK A01 T10131056  RH  072%=      5-min Rain = 0
KSLS 030441Z 31011KT M01/M06 A303 RMK A01 T10121056  RH  072%=      5-min Rain = 0
KSLS 030442Z 31014G19KT M01/M06 A303 RMK A01 T10121056  RH  072%=      5-min Rain = 0
KSLS 030443Z 31013KT M01/M06 A303 RMK A01 T10121056  RH  072%=      5-min Rain = 0
KSLS 030444Z 31012KT M01/M06 A303 RMK A01 T10121056  RH  072%=      5-min Rain = 0
KSLS 030445Z 31015KT M01/M06 A303 RMK A01 T10111056  RH  072%=      5-min Rain = 0
KSLS 030446Z 31012KT M01/M06 A303 RMK A01 T10111055  RH  072%=      5-min Rain = 0
KSLS 030447Z 31013KT M01/M06 A303 RMK A01 T10111055  RH  072%=      5-min Rain = 0
KSLS 030448Z 31013KT M01/M06 A303 RMK A01 T10111055  RH  072%=      5-min Rain = 0
KSLS 030449Z 31011KT M01/M06 A303 RMK A01 T10111055  RH  072%=      5-min Rain = 0
KSLS 030450Z 31013KT M01/M06 A303 RMK A01 T10111055  RH  072%=      5-min Rain = 0
KSLS 030451Z 31012KT M01/M06 A303 RMK A01 T10111055  RH  072%=      5-min Rain = 0
KSLS 030452Z 32013G19KT M01/M06 A303 RMK A01 T10101055  RH  072%=      5-min Rain = 0
KSLS 030453Z 31011KT M01/M06 A303 RMK A01 T10101055  RH  072%=      5-min Rain = 0
KSLS 030454Z 32012G19KT M01/M06 A303 RMK A01 T10101055  RH  072%=      5-min Rain = 0
KSLS 030455Z 32011G17KT M01/M06 A303 RMK A01 T10101055  RH  072%=      5-min Rain = 0
KSLS 030456Z 31012G17KT M01/M06 A303 RMK A01 T10101055  RH  071%=      5-min Rain = 0
KSLS 030457Z 32012G18KT M01/M06 A303 RMK A01 T10101055  RH  072%=      5-min Rain = 0
KSLS 030458Z 31011G18KT M01/M06 A303 RMK A01 T10101055  RH  072%=      5-min Rain = 0
KSLS 030459Z 32013G19KT M01/M06 A3029 RMK A01 T10101055  RH  072%=      5-min Rain = 0
KSLS 030500Z 32012G17KT M01/M06 A3029 RMK A01 T10101055  RH  072%=      5-min Rain = 0
KSLS 030501Z 31012G18KT M01/M06 A3029 RMK A01 T10101055  RH  072%=      5-min Rain = 0
KSLS 030502Z 31011G17KT M01/M05 A3029 RMK A01 T10101054  RH  072%=      5-min Rain = 0
KSLS 030503Z 31014G22KT M01/M05 A3029 RMK A01 T10091054  RH  072%=      5-min Rain = 0
KSLS 030504Z 31013G20KT M01/M05 A3029 RMK A01 T10091054  RH  072%=      5-min Rain = 0
KSLS 030505Z 31013G21KT M01/M05 A3029 RMK A01 T10091054  RH  072%=      5-min Rain = 0
KSLS 030506Z 32013G22KT M01/M05 A3029 RMK A01 T10091054  RH  072%=      5-min Rain = 0
KSLS 030507Z 32013G19KT M01/M05 A3029 RMK A01 T10081053  RH  072%=      5-min Rain = 0
KSLS 030508Z 31014G19KT M01/M05 A3029 RMK A01 T10081054  RH  071%=      5-min Rain = 0
KSLS 030509Z 31014KT M01/M05 A3029 RMK A01 T10081053  RH  071%=      5-min Rain = 0
KSLS 030510Z 32012G18KT M01/M05 A3029 RMK A01 T10081053  RH  071%=      5-min Rain = 0
KSLS 030511Z 32013KT M01/M05 A3029 RMK A01 T10081054  RH  071%=      5-min Rain = 0
KSLS 030512Z 31013KT M01/M05 A3029 RMK A01 T10081053  RH  071%=      5-min Rain = 0
KSLS 030513Z 32012G17KT M01/M05 A3029 RMK A01 T10081054  RH  071%=      5-min Rain = 0
KSLS 030514Z 31013KT M01/M05 A3029 RMK A01 T10081053  RH  071%=      5-min Rain = 0
KSLS 030515Z 31013G18KT M01/M05 A3029 RMK A01 T10071053  RH  071%=      5-min Rain = 0
KSLS 030516Z 31015G21KT M01/M05 A3029 RMK A01 T10071053  RH  071%=      5-min Rain = 0
KSLS 030517Z 31011G19KT M01/M05 A3029 RMK A01 T10071052  RH  071%=      5-min Rain = 0
KSLS 030518Z 32013G19KT M01/M05 A3029 RMK A01 T10071053  RH  071%=      5-min Rain = 0
KSLS 030519Z 32012G18KT M01/M05 A3029 RMK A01 T10071052  RH  071%=      5-min Rain = 0
KSLS 030520Z 32010G16KT M01/M05 A3029 RMK A01 T10071052  RH  071%=      5-min Rain = 0
KSLS 030521Z 31012KT M01/M05 A3029 RMK A01 T10061052  RH  071%=      5-min Rain = 0
KSLS 030522Z 31013KT M01/M05 A3029 RMK A01 T10061052  RH  071%=      5-min Rain = 0
KSLS 030523Z 31012G18KT M01/M05 A3029 RMK A01 T10061052  RH  071%=      5-min Rain = 0
KSLS 030524Z 32013G20KT M01/M05 A3029 RMK A01 T10061052  RH  071%=      5-min Rain = 0
KSLS 030525Z 32012G18KT M01/M05 A3029 RMK A01 T10061052  RH  071%=      5-min Rain = 0
KSLS 030526Z 31010G16KT M01/M05 A3029 RMK A01 T10061052  RH  071%=      5-min Rain = 0
KSLS 030527Z 31011G16KT M01/M05 A3029 RMK A01 T10061051  RH  071%=      5-min Rain = 0
KSLS 030528Z 31011KT M01/M05 A3029 RMK A01 T10061051  RH  071%=      5-min Rain = 0
KSLS 030529Z 31010G15KT M01/M05 A3029 RMK A01 T10061051  RH  071%=      5-min Rain = 0
KSLS 030530Z 31013KT M01/M05 A3029 RMK A01 T10061051  RH  071%=      5-min Rain = 0
KSLS 030531Z 32012KT M01/M05 A3029 RMK A01 T10061051  RH  071%=      5-min Rain = 0
KSLS 030532Z 32011G19KT M01/M05 A3029 RMK A01 T10061051  RH  071%=      5-min Rain = 0
KSLS 030533Z 32013G22KT M01/M05 A3029 RMK A01 T10051051  RH  071%=      5-min Rain = 0
KSLS 030534Z 32012G19KT M01/M05 A3029 RMK A01 T10051051  RH  071%=      5-min Rain = 0
KSLS 030535Z 31013G18KT M01/M05 A3029 RMK A01 T10051050  RH  071%=      5-min Rain = 0
KSLS 030536Z 31015G20KT M01/M05 A3029 RMK A01 T10051051  RH  071%=      5-min Rain = 0
KSLS 030537Z 31019G24KT M00/M05 A3029 RMK A01 T10041050  RH  071%=      5-min Rain = 0
KSLS 030538Z 31013KT M00/M05 A3029 RMK A01 T10041050  RH  071%=      5-min Rain = 0
KSLS 030539Z 31012KT M00/M05 A3029 RMK A01 T10041050  RH  071%=      5-min Rain = 0
KSLS 030540Z 31013KT M00/M05 A3029 RMK A01 T10041050  RH  071%=      5-min Rain = 0
KSLS 030541Z 31014G19KT M00/M05 A3029 RMK A01 T10041050  RH  071%=      5-min Rain = 0
KSLS 030542Z 32012G18KT M00/M05 A3029 RMK A01 T10041050  RH  071%=      5-min Rain = 0
KSLS 030543Z 32012G18KT M00/M05 A3029 RMK A01 T10041050  RH  071%=      5-min Rain = 0
KSLS 030544Z 32012KT M00/M05 A3029 RMK A01 T10041050  RH  071%=      5-min Rain = 0
KSLS 030545Z 32011G16KT M00/M05 A3029 RMK A01 T10041050  RH  071%=      5-min Rain = 0
KSLS 030546Z 31014G19KT M00/M05 A3029 RMK A01 T10041050  RH  071%=      5-min Rain = 0
KSLS 030547Z 32011KT M00/M05 A3029 RMK A01 T10041049  RH  071%=      5-min Rain = 0
KSLS 030548Z 32012G19KT M00/M05 A3029 RMK A01 T10041049  RH  071%=      5-min Rain = 0
KSLS 030549Z 32011G17KT M00/M05 A3029 RMK A01 T10041049  RH  071%=      5-min Rain = 0
KSLS 030550Z 32013KT M00/M05 A3029 RMK A01 T10041049  RH  071%=      5-min Rain = 0
KSLS 030551Z 32010KT M00/M05 A3029 RMK A01 T10041049  RH  071%=      5-min Rain = 0
KSLS 030552Z 32010KT M00/M05 A3029 RMK A01 T10031049  RH  071%=      5-min Rain = 0
KSLS 030553Z 32013G20KT M00/M05 A3029 RMK A01 T10031049  RH  072%=      5-min Rain = 0
KSLS 030554Z 32009KT M00/M05 A3029 RMK A01 T10031048  RH  071%=      5-min Rain = 0
KSLS 030555Z 32012G17KT M00/M05 A3029 RMK A01 T10031048  RH  071%=      5-min Rain = 0
KSLS 030556Z 31015G24KT M00/M05 A3029 RMK A01 T10031048  RH  071%=      5-min Rain = 0
KSLS 030557Z 32014KT M00/M05 A3028 RMK A01 T10021048  RH  071%=      5-min Rain = 0
KSLS 030558Z 31016G21KT M00/M05 A3028 RMK A01 T10021048  RH  071%=      5-min Rain = 0
KSLS 030559Z 31013G19KT M00/M05 A3028 RMK A01 T10021048  RH  071%=      5-min Rain = 0

Page generated in 0.1413 seconds.